<?xml version="1.0" encoding="UTF-8" standalone="no" ?>
<gpx xmlns="http://www.topografix.com/GPX/1/1" xmlns:xsi="http://www.w3.org/2001/XMLSchema-instance" xsi:schemaLocation="http://www.topografix.com/GPX/1/1 http://www.topografix.com/GPX/1/1/gpx.xsd" version="1.1" creator="VisuGPX - https://www.visugpx.com">
  <metadata>
    <name>Reco 30 km Dark Trail 23k</name>
    <desc><![CDATA[une partie du début puis la fin du parcours]]></desc>
  </metadata>
  <trk>
    <name><![CDATA[Reco 30 km Dark Trail 23k_1]]></name>
    <trkseg>
      <trkpt lat="46.51182" lon="5.64219">
        <ele>447.8</ele>
        <time>2021-09-19T13:03:55.000Z</time>
      </trkpt>
      <trkpt lat="46.51189" lon="5.64212">
        <ele>446</ele>
        <time>2021-09-19T13:03:55.638Z</time>
      </trkpt>
      <trkpt lat="46.51192" lon="5.64207">
        <ele>446.8</ele>
        <time>2021-09-19T13:03:57.958Z</time>
      </trkpt>
      <trkpt lat="46.51193" lon="5.64205">
        <ele>446.7</ele>
        <time>2021-09-19T13:03:58.083Z</time>
      </trkpt>
      <trkpt lat="46.51197" lon="5.64205">
        <ele>446.2</ele>
        <time>2021-09-19T13:03:58.383Z</time>
      </trkpt>
      <trkpt lat="46.51203" lon="5.64203">
        <ele>445.6</ele>
        <time>2021-09-19T13:03:58.846Z</time>
      </trkpt>
      <trkpt lat="46.51209" lon="5.64195">
        <ele>446</ele>
        <time>2021-09-19T13:04:00.711Z</time>
      </trkpt>
      <trkpt lat="46.51217" lon="5.64192">
        <ele>444</ele>
        <time>2021-09-19T13:04:01.332Z</time>
      </trkpt>
      <trkpt lat="46.51231" lon="5.6418">
        <ele>440</ele>
        <time>2021-09-19T13:04:02.553Z</time>
      </trkpt>
      <trkpt lat="46.51241" lon="5.64173">
        <ele>441.1</ele>
        <time>2021-09-19T13:04:06.323Z</time>
      </trkpt>
      <trkpt lat="46.51253" lon="5.64159">
        <ele>439</ele>
        <time>2021-09-19T13:04:07.479Z</time>
      </trkpt>
      <trkpt lat="46.51262" lon="5.64151">
        <ele>440.6</ele>
        <time>2021-09-19T13:04:12.840Z</time>
      </trkpt>
      <trkpt lat="46.51284" lon="5.64155">
        <ele>439</ele>
        <time>2021-09-19T13:04:14.506Z</time>
      </trkpt>
      <trkpt lat="46.51309" lon="5.64152">
        <ele>439</ele>
        <time>2021-09-19T13:04:17.811Z</time>
      </trkpt>
      <trkpt lat="46.51329" lon="5.64154">
        <ele>441</ele>
        <time>2021-09-19T13:04:24.663Z</time>
      </trkpt>
      <trkpt lat="46.51346" lon="5.64162">
        <ele>443.6</ele>
        <time>2021-09-19T13:04:33.743Z</time>
      </trkpt>
      <trkpt lat="46.51364" lon="5.64174">
        <ele>443</ele>
        <time>2021-09-19T13:04:35.625Z</time>
      </trkpt>
      <trkpt lat="46.51403" lon="5.64196">
        <ele>446</ele>
        <time>2021-09-19T13:04:46.860Z</time>
      </trkpt>
      <trkpt lat="46.5142" lon="5.64206">
        <ele>447.8</ele>
        <time>2021-09-19T13:04:53.031Z</time>
      </trkpt>
      <trkpt lat="46.51437" lon="5.64206">
        <ele>448</ele>
        <time>2021-09-19T13:04:55.541Z</time>
      </trkpt>
      <trkpt lat="46.51454" lon="5.64198">
        <ele>451.5</ele>
        <time>2021-09-19T13:05:04.621Z</time>
      </trkpt>
      <trkpt lat="46.51468" lon="5.64179">
        <ele>449</ele>
        <time>2021-09-19T13:05:06.061Z</time>
      </trkpt>
      <trkpt lat="46.51484" lon="5.64155">
        <ele>451</ele>
        <time>2021-09-19T13:05:13.051Z</time>
      </trkpt>
      <trkpt lat="46.515" lon="5.64136">
        <ele>451</ele>
        <time>2021-09-19T13:05:15.773Z</time>
      </trkpt>
      <trkpt lat="46.51516" lon="5.6412">
        <ele>452</ele>
        <time>2021-09-19T13:05:20.291Z</time>
      </trkpt>
      <trkpt lat="46.51541" lon="5.64104">
        <ele>453</ele>
        <time>2021-09-19T13:05:25.705Z</time>
      </trkpt>
      <trkpt lat="46.51567" lon="5.64093">
        <ele>453</ele>
        <time>2021-09-19T13:05:29.273Z</time>
      </trkpt>
      <trkpt lat="46.51592" lon="5.64084">
        <ele>454</ele>
        <time>2021-09-19T13:05:34.539Z</time>
      </trkpt>
      <trkpt lat="46.51616" lon="5.64073">
        <ele>454</ele>
        <time>2021-09-19T13:05:37.854Z</time>
      </trkpt>
      <trkpt lat="46.51635" lon="5.64058">
        <ele>455</ele>
        <time>2021-09-19T13:05:42.715Z</time>
      </trkpt>
      <trkpt lat="46.51646" lon="5.64032">
        <ele>456</ele>
        <time>2021-09-19T13:05:47.479Z</time>
      </trkpt>
      <trkpt lat="46.51651" lon="5.64001">
        <ele>457</ele>
        <time>2021-09-19T13:05:52.386Z</time>
      </trkpt>
      <trkpt lat="46.51652" lon="5.63958">
        <ele>457</ele>
        <time>2021-09-19T13:05:56.286Z</time>
      </trkpt>
      <trkpt lat="46.51652" lon="5.63931">
        <ele>459.6</ele>
        <time>2021-09-19T13:06:05.727Z</time>
      </trkpt>
      <trkpt lat="46.51653" lon="5.63909">
        <ele>457</ele>
        <time>2021-09-19T13:06:06.867Z</time>
      </trkpt>
      <trkpt lat="46.51678" lon="5.63907">
        <ele>458</ele>
        <time>2021-09-19T13:06:12.068Z</time>
      </trkpt>
      <trkpt lat="46.51695" lon="5.63916">
        <ele>462.4</ele>
        <time>2021-09-19T13:06:21.262Z</time>
      </trkpt>
      <trkpt lat="46.51719" lon="5.63921">
        <ele>463</ele>
        <time>2021-09-19T13:06:25.392Z</time>
      </trkpt>
      <trkpt lat="46.51738" lon="5.63922">
        <ele>466.2</ele>
        <time>2021-09-19T13:06:35.053Z</time>
      </trkpt>
      <trkpt lat="46.51747" lon="5.63928">
        <ele>466</ele>
        <time>2021-09-19T13:06:36.105Z</time>
      </trkpt>
      <trkpt lat="46.51744" lon="5.63949">
        <ele>468</ele>
        <time>2021-09-19T13:06:43.605Z</time>
      </trkpt>
      <trkpt lat="46.51741" lon="5.64">
        <ele>469</ele>
        <time>2021-09-19T13:06:49.876Z</time>
      </trkpt>
      <trkpt lat="46.51742" lon="5.64019">
        <ele>469.9</ele>
        <time>2021-09-19T13:06:53.317Z</time>
      </trkpt>
      <trkpt lat="46.51744" lon="5.64028">
        <ele>469</ele>
        <time>2021-09-19T13:06:53.806Z</time>
      </trkpt>
      <trkpt lat="46.51749" lon="5.64039">
        <ele>470.4</ele>
        <time>2021-09-19T13:06:58.415Z</time>
      </trkpt>
      <trkpt lat="46.51756" lon="5.64057">
        <ele>469</ele>
        <time>2021-09-19T13:06:59.484Z</time>
      </trkpt>
      <trkpt lat="46.51765" lon="5.64073">
        <ele>471.8</ele>
        <time>2021-09-19T13:07:06.710Z</time>
      </trkpt>
      <trkpt lat="46.51779" lon="5.64089">
        <ele>471</ele>
        <time>2021-09-19T13:07:08.178Z</time>
      </trkpt>
      <trkpt lat="46.51791" lon="5.64099">
        <ele>474.8</ele>
        <time>2021-09-19T13:07:15.207Z</time>
      </trkpt>
      <trkpt lat="46.51803" lon="5.64103">
        <ele>476</ele>
        <time>2021-09-19T13:07:19.324Z</time>
      </trkpt>
      <trkpt lat="46.51815" lon="5.64106">
        <ele>477.6</ele>
        <time>2021-09-19T13:07:25.334Z</time>
      </trkpt>
      <trkpt lat="46.51826" lon="5.64099">
        <ele>480</ele>
        <time>2021-09-19T13:07:31.436Z</time>
      </trkpt>
      <trkpt lat="46.51838" lon="5.64096">
        <ele>480.2</ele>
        <time>2021-09-19T13:07:33.324Z</time>
      </trkpt>
      <trkpt lat="46.5186" lon="5.6412">
        <ele>485</ele>
        <time>2021-09-19T13:07:47.303Z</time>
      </trkpt>
      <trkpt lat="46.51874" lon="5.64131">
        <ele>483.1</ele>
        <time>2021-09-19T13:07:48.498Z</time>
      </trkpt>
      <trkpt lat="46.51888" lon="5.64139">
        <ele>485</ele>
        <time>2021-09-19T13:07:55.428Z</time>
      </trkpt>
      <trkpt lat="46.51901" lon="5.6415">
        <ele>485.5</ele>
        <time>2021-09-19T13:07:58.277Z</time>
      </trkpt>
      <trkpt lat="46.51911" lon="5.64157">
        <ele>488</ele>
        <time>2021-09-19T13:08:03.917Z</time>
      </trkpt>
      <trkpt lat="46.51929" lon="5.64169">
        <ele>488</ele>
        <time>2021-09-19T13:08:06.526Z</time>
      </trkpt>
      <trkpt lat="46.5195" lon="5.64177">
        <ele>488</ele>
        <time>2021-09-19T13:08:09.386Z</time>
      </trkpt>
      <trkpt lat="46.51968" lon="5.64179">
        <ele>490.1</ele>
        <time>2021-09-19T13:08:16.741Z</time>
      </trkpt>
      <trkpt lat="46.51984" lon="5.64176">
        <ele>488</ele>
        <time>2021-09-19T13:08:17.953Z</time>
      </trkpt>
      <trkpt lat="46.51995" lon="5.64176">
        <ele>492.1</ele>
        <time>2021-09-19T13:08:23.543Z</time>
      </trkpt>
      <trkpt lat="46.52011" lon="5.64171">
        <ele>489</ele>
        <time>2021-09-19T13:08:24.772Z</time>
      </trkpt>
      <trkpt lat="46.52029" lon="5.64165">
        <ele>493.4</ele>
        <time>2021-09-19T13:08:34.156Z</time>
      </trkpt>
      <trkpt lat="46.52045" lon="5.64157">
        <ele>491</ele>
        <time>2021-09-19T13:08:35.428Z</time>
      </trkpt>
      <trkpt lat="46.5206" lon="5.64152">
        <ele>494.3</ele>
        <time>2021-09-19T13:08:43.247Z</time>
      </trkpt>
      <trkpt lat="46.52076" lon="5.64142">
        <ele>491</ele>
        <time>2021-09-19T13:08:44.556Z</time>
      </trkpt>
      <trkpt lat="46.52092" lon="5.6414">
        <ele>495.6</ele>
        <time>2021-09-19T13:08:52.716Z</time>
      </trkpt>
      <trkpt lat="46.52118" lon="5.64136">
        <ele>491</ele>
        <time>2021-09-19T13:08:54.681Z</time>
      </trkpt>
      <trkpt lat="46.52146" lon="5.64139">
        <ele>490</ele>
        <time>2021-09-19T13:08:57.208Z</time>
      </trkpt>
      <trkpt lat="46.52171" lon="5.64139">
        <ele>490</ele>
        <time>2021-09-19T13:09:00.502Z</time>
      </trkpt>
      <trkpt lat="46.52191" lon="5.64133">
        <ele>490</ele>
        <time>2021-09-19T13:09:03.192Z</time>
      </trkpt>
      <trkpt lat="46.52215" lon="5.6412">
        <ele>491</ele>
        <time>2021-09-19T13:09:08.445Z</time>
      </trkpt>
      <trkpt lat="46.52238" lon="5.64111">
        <ele>491</ele>
        <time>2021-09-19T13:09:11.583Z</time>
      </trkpt>
      <trkpt lat="46.5226" lon="5.64103">
        <ele>492</ele>
        <time>2021-09-19T13:09:16.594Z</time>
      </trkpt>
      <trkpt lat="46.52275" lon="5.64096">
        <ele>500.9</ele>
        <time>2021-09-19T13:09:24.600Z</time>
      </trkpt>
      <trkpt lat="46.52286" lon="5.64092">
        <ele>494</ele>
        <time>2021-09-19T13:09:25.452Z</time>
      </trkpt>
      <trkpt lat="46.5229" lon="5.64093">
        <ele>501.1</ele>
        <time>2021-09-19T13:09:27.514Z</time>
      </trkpt>
      <trkpt lat="46.52293" lon="5.64094">
        <ele>501.2</ele>
        <time>2021-09-19T13:09:28.091Z</time>
      </trkpt>
      <trkpt lat="46.52299" lon="5.64078">
        <ele>498</ele>
        <time>2021-09-19T13:09:29.033Z</time>
      </trkpt>
      <trkpt lat="46.5231" lon="5.6407">
        <ele>503.6</ele>
        <time>2021-09-19T13:09:35.284Z</time>
      </trkpt>
      <trkpt lat="46.52318" lon="5.64059">
        <ele>499</ele>
        <time>2021-09-19T13:09:36.111Z</time>
      </trkpt>
      <trkpt lat="46.52327" lon="5.64043">
        <ele>509.7</ele>
        <time>2021-09-19T13:09:43.337Z</time>
      </trkpt>
      <trkpt lat="46.52332" lon="5.64036">
        <ele>500</ele>
        <time>2021-09-19T13:09:43.858Z</time>
      </trkpt>
      <trkpt lat="46.52338" lon="5.64028">
        <ele>512.6</ele>
        <time>2021-09-19T13:09:47.996Z</time>
      </trkpt>
      <trkpt lat="46.52347" lon="5.64018">
        <ele>506</ele>
        <time>2021-09-19T13:09:48.847Z</time>
      </trkpt>
      <trkpt lat="46.52359" lon="5.64008">
        <ele>514.5</ele>
        <time>2021-09-19T13:09:55.876Z</time>
      </trkpt>
      <trkpt lat="46.52372" lon="5.63996">
        <ele>507</ele>
        <time>2021-09-19T13:09:57.033Z</time>
      </trkpt>
      <trkpt lat="46.52381" lon="5.63982">
        <ele>517.8</ele>
        <time>2021-09-19T13:10:03.732Z</time>
      </trkpt>
      <trkpt lat="46.52391" lon="5.63972">
        <ele>510</ele>
        <time>2021-09-19T13:10:04.644Z</time>
      </trkpt>
      <trkpt lat="46.52405" lon="5.63961">
        <ele>520.6</ele>
        <time>2021-09-19T13:10:12.731Z</time>
      </trkpt>
      <trkpt lat="46.52421" lon="5.63956">
        <ele>511</ele>
        <time>2021-09-19T13:10:13.960Z</time>
      </trkpt>
      <trkpt lat="46.52433" lon="5.63949">
        <ele>522.3</ele>
        <time>2021-09-19T13:10:20.531Z</time>
      </trkpt>
      <trkpt lat="46.52451" lon="5.63934">
        <ele>514</ele>
        <time>2021-09-19T13:10:22.090Z</time>
      </trkpt>
      <trkpt lat="46.52483" lon="5.63923">
        <ele>519</ele>
        <time>2021-09-19T13:10:38.799Z</time>
      </trkpt>
      <trkpt lat="46.52502" lon="5.63911">
        <ele>521</ele>
        <time>2021-09-19T13:10:45.664Z</time>
      </trkpt>
      <trkpt lat="46.52511" lon="5.63907">
        <ele>530.6</ele>
        <time>2021-09-19T13:10:50.447Z</time>
      </trkpt>
      <trkpt lat="46.52519" lon="5.63901">
        <ele>532.1</ele>
        <time>2021-09-19T13:10:55.021Z</time>
      </trkpt>
      <trkpt lat="46.5253" lon="5.63895">
        <ele>532</ele>
        <time>2021-09-19T13:10:56.467Z</time>
      </trkpt>
      <trkpt lat="46.5254" lon="5.63892">
        <ele>534.2</ele>
        <time>2021-09-19T13:11:01.656Z</time>
      </trkpt>
      <trkpt lat="46.52551" lon="5.63884">
        <ele>532</ele>
        <time>2021-09-19T13:11:02.580Z</time>
      </trkpt>
      <trkpt lat="46.52568" lon="5.63876">
        <ele>537</ele>
        <time>2021-09-19T13:11:11.660Z</time>
      </trkpt>
      <trkpt lat="46.52582" lon="5.63879">
        <ele>533</ele>
        <time>2021-09-19T13:11:12.723Z</time>
      </trkpt>
      <trkpt lat="46.52596" lon="5.63888">
        <ele>535.2</ele>
        <time>2021-09-19T13:11:20.502Z</time>
      </trkpt>
      <trkpt lat="46.52602" lon="5.6389">
        <ele>534</ele>
        <time>2021-09-19T13:11:20.964Z</time>
      </trkpt>
      <trkpt lat="46.52607" lon="5.63889">
        <ele>535.2</ele>
        <time>2021-09-19T13:11:23.529Z</time>
      </trkpt>
      <trkpt lat="46.52613" lon="5.63885">
        <ele>535.8</ele>
        <time>2021-09-19T13:11:25.606Z</time>
      </trkpt>
      <trkpt lat="46.52614" lon="5.63884">
        <ele>536</ele>
        <time>2021-09-19T13:11:26.223Z</time>
      </trkpt>
      <trkpt lat="46.52616" lon="5.63884">
        <ele>536</ele>
        <time>2021-09-19T13:11:26.486Z</time>
      </trkpt>
      <trkpt lat="46.52619" lon="5.63878">
        <ele>537</ele>
        <time>2021-09-19T13:11:29.079Z</time>
      </trkpt>
      <trkpt lat="46.5262" lon="5.63874">
        <ele>537.6</ele>
        <time>2021-09-19T13:11:30.567Z</time>
      </trkpt>
      <trkpt lat="46.5262" lon="5.63872">
        <ele>537.9</ele>
        <time>2021-09-19T13:11:31.266Z</time>
      </trkpt>
      <trkpt lat="46.5262" lon="5.6387">
        <ele>538.2</ele>
        <time>2021-09-19T13:11:31.966Z</time>
      </trkpt>
      <trkpt lat="46.5262" lon="5.63857">
        <ele>540.2</ele>
        <time>2021-09-19T13:11:36.511Z</time>
      </trkpt>
      <trkpt lat="46.52624" lon="5.63855">
        <ele>540.6</ele>
        <time>2021-09-19T13:11:37.887Z</time>
      </trkpt>
      <trkpt lat="46.52629" lon="5.63855">
        <ele>546</ele>
        <time>2021-09-19T13:11:40.427Z</time>
      </trkpt>
      <trkpt lat="46.52631" lon="5.63851">
        <ele>541.4</ele>
        <time>2021-09-19T13:11:40.683Z</time>
      </trkpt>
      <trkpt lat="46.52634" lon="5.63849">
        <ele>541.7</ele>
        <time>2021-09-19T13:11:41.722Z</time>
      </trkpt>
      <trkpt lat="46.52635" lon="5.63849">
        <ele>541.8</ele>
        <time>2021-09-19T13:11:42.064Z</time>
      </trkpt>
      <trkpt lat="46.52656" lon="5.63834">
        <ele>550</ele>
        <time>2021-09-19T13:11:53.954Z</time>
      </trkpt>
      <trkpt lat="46.52659" lon="5.63833">
        <ele>544.8</ele>
        <time>2021-09-19T13:11:54.185Z</time>
      </trkpt>
      <trkpt lat="46.52667" lon="5.63833">
        <ele>545</ele>
        <time>2021-09-19T13:11:55.552Z</time>
      </trkpt>
      <trkpt lat="46.52668" lon="5.63834">
        <ele>545.1</ele>
        <time>2021-09-19T13:11:55.907Z</time>
      </trkpt>
      <trkpt lat="46.5267" lon="5.63833">
        <ele>545.6</ele>
        <time>2021-09-19T13:11:56.982Z</time>
      </trkpt>
      <trkpt lat="46.52675" lon="5.63827">
        <ele>555</ele>
        <time>2021-09-19T13:12:00.277Z</time>
      </trkpt>
      <trkpt lat="46.52685" lon="5.63821">
        <ele>547.6</ele>
        <time>2021-09-19T13:12:01.089Z</time>
      </trkpt>
      <trkpt lat="46.52713" lon="5.63816">
        <ele>566</ele>
        <time>2021-09-19T13:12:15.424Z</time>
      </trkpt>
      <trkpt lat="46.5272" lon="5.63814">
        <ele>554.5</ele>
        <time>2021-09-19T13:12:15.960Z</time>
      </trkpt>
      <trkpt lat="46.52724" lon="5.63804">
        <ele>555.3</ele>
        <time>2021-09-19T13:12:18.701Z</time>
      </trkpt>
      <trkpt lat="46.52734" lon="5.63799">
        <ele>570</ele>
        <time>2021-09-19T13:12:24.074Z</time>
      </trkpt>
      <trkpt lat="46.5274" lon="5.63793">
        <ele>559.1</ele>
        <time>2021-09-19T13:12:24.621Z</time>
      </trkpt>
      <trkpt lat="46.52742" lon="5.63793">
        <ele>559.5</ele>
        <time>2021-09-19T13:12:25.638Z</time>
      </trkpt>
      <trkpt lat="46.52746" lon="5.6379">
        <ele>560.6</ele>
        <time>2021-09-19T13:12:27.925Z</time>
      </trkpt>
      <trkpt lat="46.52747" lon="5.63787">
        <ele>560.9</ele>
        <time>2021-09-19T13:12:29.048Z</time>
      </trkpt>
      <trkpt lat="46.52751" lon="5.63785">
        <ele>578</ele>
        <time>2021-09-19T13:12:31.197Z</time>
      </trkpt>
      <trkpt lat="46.52753" lon="5.63782">
        <ele>562.6</ele>
        <time>2021-09-19T13:12:31.413Z</time>
      </trkpt>
      <trkpt lat="46.52755" lon="5.63781">
        <ele>563.1</ele>
        <time>2021-09-19T13:12:32.488Z</time>
      </trkpt>
      <trkpt lat="46.52758" lon="5.63779">
        <ele>563.9</ele>
        <time>2021-09-19T13:12:34.165Z</time>
      </trkpt>
      <trkpt lat="46.52763" lon="5.63779">
        <ele>565.1</ele>
        <time>2021-09-19T13:12:36.705Z</time>
      </trkpt>
      <trkpt lat="46.52765" lon="5.63775">
        <ele>565.8</ele>
        <time>2021-09-19T13:12:38.434Z</time>
      </trkpt>
      <trkpt lat="46.52769" lon="5.63771">
        <ele>581</ele>
        <time>2021-09-19T13:12:40.901Z</time>
      </trkpt>
      <trkpt lat="46.5277" lon="5.63768">
        <ele>567.4</ele>
        <time>2021-09-19T13:12:41.074Z</time>
      </trkpt>
      <trkpt lat="46.52781" lon="5.63765">
        <ele>570.4</ele>
        <time>2021-09-19T13:12:46.761Z</time>
      </trkpt>
      <trkpt lat="46.52785" lon="5.63762">
        <ele>571.7</ele>
        <time>2021-09-19T13:12:49.048Z</time>
      </trkpt>
      <trkpt lat="46.52794" lon="5.6376">
        <ele>588</ele>
        <time>2021-09-19T13:12:53.674Z</time>
      </trkpt>
      <trkpt lat="46.52805" lon="5.63756">
        <ele>577.5</ele>
        <time>2021-09-19T13:12:54.526Z</time>
      </trkpt>
      <trkpt lat="46.52812" lon="5.63752">
        <ele>591</ele>
        <time>2021-09-19T13:12:58.348Z</time>
      </trkpt>
      <trkpt lat="46.52814" lon="5.63752">
        <ele>580.4</ele>
        <time>2021-09-19T13:12:58.498Z</time>
      </trkpt>
      <trkpt lat="46.52823" lon="5.63749">
        <ele>582.9</ele>
        <time>2021-09-19T13:13:03.190Z</time>
      </trkpt>
      <trkpt lat="46.52843" lon="5.63744">
        <ele>596</ele>
        <time>2021-09-19T13:13:13.502Z</time>
      </trkpt>
      <trkpt lat="46.52855" lon="5.63742">
        <ele>589.5</ele>
        <time>2021-09-19T13:13:14.410Z</time>
      </trkpt>
      <trkpt lat="46.52866" lon="5.63742">
        <ele>598</ele>
        <time>2021-09-19T13:13:19.999Z</time>
      </trkpt>
      <trkpt lat="46.52878" lon="5.63746">
        <ele>595.9</ele>
        <time>2021-09-19T13:13:20.924Z</time>
      </trkpt>
      <trkpt lat="46.52885" lon="5.63747">
        <ele>600</ele>
        <time>2021-09-19T13:13:24.498Z</time>
      </trkpt>
      <trkpt lat="46.5289" lon="5.63739">
        <ele>597.2</ele>
        <time>2021-09-19T13:13:25.057Z</time>
      </trkpt>
      <trkpt lat="46.52899" lon="5.63744">
        <ele>600.4</ele>
        <time>2021-09-19T13:13:29.953Z</time>
      </trkpt>
      <trkpt lat="46.5291" lon="5.63748">
        <ele>605</ele>
        <time>2021-09-19T13:13:35.715Z</time>
      </trkpt>
      <trkpt lat="46.52922" lon="5.63749">
        <ele>606.5</ele>
        <time>2021-09-19T13:13:41.144Z</time>
      </trkpt>
      <trkpt lat="46.52934" lon="5.63752">
        <ele>608</ele>
        <time>2021-09-19T13:13:46.534Z</time>
      </trkpt>
      <trkpt lat="46.52949" lon="5.63756">
        <ele>610.2</ele>
        <time>2021-09-19T13:13:54.283Z</time>
      </trkpt>
      <trkpt lat="46.52961" lon="5.63755">
        <ele>610</ele>
        <time>2021-09-19T13:13:55.616Z</time>
      </trkpt>
      <trkpt lat="46.52981" lon="5.63762">
        <ele>611</ele>
        <time>2021-09-19T13:14:00.312Z</time>
      </trkpt>
      <trkpt lat="46.52992" lon="5.63757">
        <ele>616.5</ele>
        <time>2021-09-19T13:14:06.168Z</time>
      </trkpt>
      <trkpt lat="46.53005" lon="5.63755">
        <ele>612</ele>
        <time>2021-09-19T13:14:07.150Z</time>
      </trkpt>
      <trkpt lat="46.53027" lon="5.63757">
        <ele>614</ele>
        <time>2021-09-19T13:14:14.076Z</time>
      </trkpt>
      <trkpt lat="46.5303" lon="5.63771">
        <ele>619.6</ele>
        <time>2021-09-19T13:14:19.202Z</time>
      </trkpt>
      <trkpt lat="46.53047" lon="5.6377">
        <ele>616</ele>
        <time>2021-09-19T13:14:20.481Z</time>
      </trkpt>
      <trkpt lat="46.53066" lon="5.63767">
        <ele>622.9</ele>
        <time>2021-09-19T13:14:30.192Z</time>
      </trkpt>
      <trkpt lat="46.53084" lon="5.63748">
        <ele>617</ele>
        <time>2021-09-19T13:14:31.864Z</time>
      </trkpt>
      <trkpt lat="46.53092" lon="5.63722">
        <ele>615</ele>
        <time>2021-09-19T13:14:33.336Z</time>
      </trkpt>
      <trkpt lat="46.53112" lon="5.63703">
        <ele>614</ele>
        <time>2021-09-19T13:14:35.361Z</time>
      </trkpt>
      <trkpt lat="46.53127" lon="5.63684">
        <ele>607</ele>
        <time>2021-09-19T13:14:36.856Z</time>
      </trkpt>
      <trkpt lat="46.53149" lon="5.63676">
        <ele>602</ele>
        <time>2021-09-19T13:14:38.560Z</time>
      </trkpt>
      <trkpt lat="46.5316" lon="5.63657">
        <ele>607.2</ele>
        <time>2021-09-19T13:14:47.241Z</time>
      </trkpt>
      <trkpt lat="46.5318" lon="5.6364">
        <ele>591</ele>
        <time>2021-09-19T13:14:48.982Z</time>
      </trkpt>
      <trkpt lat="46.53197" lon="5.63617">
        <ele>578</ele>
        <time>2021-09-19T13:14:50.727Z</time>
      </trkpt>
      <trkpt lat="46.53226" lon="5.63607">
        <ele>575</ele>
        <time>2021-09-19T13:14:52.966Z</time>
      </trkpt>
      <trkpt lat="46.53252" lon="5.63602">
        <ele>574</ele>
        <time>2021-09-19T13:14:55.270Z</time>
      </trkpt>
      <trkpt lat="46.53276" lon="5.63602">
        <ele>573</ele>
        <time>2021-09-19T13:14:57.308Z</time>
      </trkpt>
      <trkpt lat="46.53301" lon="5.63603">
        <ele>573</ele>
        <time>2021-09-19T13:15:00.603Z</time>
      </trkpt>
      <trkpt lat="46.53324" lon="5.63614">
        <ele>574</ele>
        <time>2021-09-19T13:15:05.734Z</time>
      </trkpt>
      <trkpt lat="46.53348" lon="5.63627">
        <ele>576</ele>
        <time>2021-09-19T13:15:12.964Z</time>
      </trkpt>
      <trkpt lat="46.53374" lon="5.63627">
        <ele>577</ele>
        <time>2021-09-19T13:15:18.252Z</time>
      </trkpt>
      <trkpt lat="46.53401" lon="5.63632">
        <ele>578</ele>
        <time>2021-09-19T13:15:23.657Z</time>
      </trkpt>
      <trkpt lat="46.53434" lon="5.63634">
        <ele>578</ele>
        <time>2021-09-19T13:15:28.008Z</time>
      </trkpt>
      <trkpt lat="46.5346" lon="5.6365">
        <ele>579</ele>
        <time>2021-09-19T13:15:33.514Z</time>
      </trkpt>
      <trkpt lat="46.53489" lon="5.63662">
        <ele>583</ele>
        <time>2021-09-19T13:15:48.666Z</time>
      </trkpt>
      <trkpt lat="46.53513" lon="5.63664">
        <ele>584</ele>
        <time>2021-09-19T13:15:53.782Z</time>
      </trkpt>
      <trkpt lat="46.53538" lon="5.63667">
        <ele>585</ele>
        <time>2021-09-19T13:15:58.988Z</time>
      </trkpt>
      <trkpt lat="46.5356" lon="5.63678">
        <ele>588</ele>
        <time>2021-09-19T13:16:10.090Z</time>
      </trkpt>
      <trkpt lat="46.53585" lon="5.6369">
        <ele>586</ele>
        <time>2021-09-19T13:16:12.068Z</time>
      </trkpt>
      <trkpt lat="46.53614" lon="5.63689">
        <ele>585</ele>
        <time>2021-09-19T13:16:14.709Z</time>
      </trkpt>
      <trkpt lat="46.53635" lon="5.63696">
        <ele>585</ele>
        <time>2021-09-19T13:16:17.547Z</time>
      </trkpt>
      <trkpt lat="46.53656" lon="5.63715">
        <ele>585</ele>
        <time>2021-09-19T13:16:20.806Z</time>
      </trkpt>
      <trkpt lat="46.53681" lon="5.63737">
        <ele>585</ele>
        <time>2021-09-19T13:16:24.656Z</time>
      </trkpt>
      <trkpt lat="46.53699" lon="5.63755">
        <ele>585</ele>
        <time>2021-09-19T13:16:27.534Z</time>
      </trkpt>
      <trkpt lat="46.53719" lon="5.63765">
        <ele>583</ele>
        <time>2021-09-19T13:16:29.123Z</time>
      </trkpt>
      <trkpt lat="46.53747" lon="5.63776">
        <ele>583</ele>
        <time>2021-09-19T13:16:32.944Z</time>
      </trkpt>
      <trkpt lat="46.53775" lon="5.6378">
        <ele>583</ele>
        <time>2021-09-19T13:16:36.651Z</time>
      </trkpt>
      <trkpt lat="46.53791" lon="5.63768">
        <ele>588</ele>
        <time>2021-09-19T13:16:45.799Z</time>
      </trkpt>
      <trkpt lat="46.53813" lon="5.63772">
        <ele>583</ele>
        <time>2021-09-19T13:16:47.465Z</time>
      </trkpt>
      <trkpt lat="46.53836" lon="5.63793">
        <ele>586</ele>
        <time>2021-09-19T13:16:57.825Z</time>
      </trkpt>
      <trkpt lat="46.53853" lon="5.6382">
        <ele>589</ele>
        <time>2021-09-19T13:17:08.430Z</time>
      </trkpt>
      <trkpt lat="46.53882" lon="5.63835">
        <ele>589</ele>
        <time>2021-09-19T13:17:12.485Z</time>
      </trkpt>
      <trkpt lat="46.53912" lon="5.63849">
        <ele>587</ele>
        <time>2021-09-19T13:17:14.707Z</time>
      </trkpt>
      <trkpt lat="46.53931" lon="5.63862">
        <ele>587</ele>
        <time>2021-09-19T13:17:17.474Z</time>
      </trkpt>
      <trkpt lat="46.53958" lon="5.63878">
        <ele>588</ele>
        <time>2021-09-19T13:17:23.074Z</time>
      </trkpt>
      <trkpt lat="46.53989" lon="5.63893">
        <ele>589</ele>
        <time>2021-09-19T13:17:29.055Z</time>
      </trkpt>
      <trkpt lat="46.54029" lon="5.63909">
        <ele>589</ele>
        <time>2021-09-19T13:17:34.521Z</time>
      </trkpt>
      <trkpt lat="46.54059" lon="5.63903">
        <ele>586</ele>
        <time>2021-09-19T13:17:36.796Z</time>
      </trkpt>
      <trkpt lat="46.54084" lon="5.63886">
        <ele>582</ele>
        <time>2021-09-19T13:17:38.870Z</time>
      </trkpt>
      <trkpt lat="46.54099" lon="5.63873">
        <ele>589.6</ele>
        <time>2021-09-19T13:17:47.743Z</time>
      </trkpt>
      <trkpt lat="46.54128" lon="5.63854">
        <ele>575</ele>
        <time>2021-09-19T13:17:50.133Z</time>
      </trkpt>
      <trkpt lat="46.54154" lon="5.63842">
        <ele>573</ele>
        <time>2021-09-19T13:17:52.183Z</time>
      </trkpt>
      <trkpt lat="46.54162" lon="5.63869">
        <ele>573</ele>
        <time>2021-09-19T13:17:54.847Z</time>
      </trkpt>
      <trkpt lat="46.54179" lon="5.63889">
        <ele>574</ele>
        <time>2021-09-19T13:17:59.747Z</time>
      </trkpt>
      <trkpt lat="46.54201" lon="5.63902">
        <ele>576</ele>
        <time>2021-09-19T13:18:06.798Z</time>
      </trkpt>
      <trkpt lat="46.54227" lon="5.6392">
        <ele>577</ele>
        <time>2021-09-19T13:18:12.362Z</time>
      </trkpt>
      <trkpt lat="46.54248" lon="5.63935">
        <ele>579</ele>
        <time>2021-09-19T13:18:19.384Z</time>
      </trkpt>
      <trkpt lat="46.54272" lon="5.63951">
        <ele>582</ele>
        <time>2021-09-19T13:18:29.814Z</time>
      </trkpt>
      <trkpt lat="46.54292" lon="5.63964">
        <ele>586</ele>
        <time>2021-09-19T13:18:40.946Z</time>
      </trkpt>
      <trkpt lat="46.54313" lon="5.63976">
        <ele>588</ele>
        <time>2021-09-19T13:18:47.905Z</time>
      </trkpt>
      <trkpt lat="46.54331" lon="5.63988">
        <ele>589</ele>
        <time>2021-09-19T13:18:52.482Z</time>
      </trkpt>
      <trkpt lat="46.54355" lon="5.63993">
        <ele>589</ele>
        <time>2021-09-19T13:18:55.676Z</time>
      </trkpt>
      <trkpt lat="46.54378" lon="5.64003">
        <ele>591</ele>
        <time>2021-09-19T13:19:02.750Z</time>
      </trkpt>
      <trkpt lat="46.54399" lon="5.6401">
        <ele>591</ele>
        <time>2021-09-19T13:19:05.588Z</time>
      </trkpt>
      <trkpt lat="46.54421" lon="5.64022">
        <ele>598</ele>
        <time>2021-09-19T13:19:17.528Z</time>
      </trkpt>
      <trkpt lat="46.54443" lon="5.64037">
        <ele>603</ele>
        <time>2021-09-19T13:19:29.875Z</time>
      </trkpt>
      <trkpt lat="46.54462" lon="5.64058">
        <ele>608</ele>
        <time>2021-09-19T13:19:42.002Z</time>
      </trkpt>
      <trkpt lat="46.54491" lon="5.64097">
        <ele>614</ele>
        <time>2021-09-19T13:20:02.075Z</time>
      </trkpt>
      <trkpt lat="46.54514" lon="5.64118">
        <ele>619</ele>
        <time>2021-09-19T13:20:15.876Z</time>
      </trkpt>
      <trkpt lat="46.54528" lon="5.64138">
        <ele>622</ele>
        <time>2021-09-19T13:20:25.849Z</time>
      </trkpt>
      <trkpt lat="46.54537" lon="5.64173">
        <ele>626</ele>
        <time>2021-09-19T13:20:38.908Z</time>
      </trkpt>
      <trkpt lat="46.54543" lon="5.64206">
        <ele>630</ele>
        <time>2021-09-19T13:20:50.837Z</time>
      </trkpt>
      <trkpt lat="46.54554" lon="5.64235">
        <ele>636</ele>
        <time>2021-09-19T13:21:02.411Z</time>
      </trkpt>
      <trkpt lat="46.54568" lon="5.64263">
        <ele>642</ele>
        <time>2021-09-19T13:21:14.509Z</time>
      </trkpt>
      <trkpt lat="46.54552" lon="5.64288">
        <ele>643</ele>
        <time>2021-09-19T13:21:19.581Z</time>
      </trkpt>
      <trkpt lat="46.54545" lon="5.64313">
        <ele>659.9</ele>
        <time>2021-09-19T13:21:29.015Z</time>
      </trkpt>
      <trkpt lat="46.5454" lon="5.6435">
        <ele>650</ele>
        <time>2021-09-19T13:21:30.964Z</time>
      </trkpt>
      <trkpt lat="46.54555" lon="5.64382">
        <ele>652</ele>
        <time>2021-09-19T13:21:38.306Z</time>
      </trkpt>
      <trkpt lat="46.54573" lon="5.644">
        <ele>652</ele>
        <time>2021-09-19T13:21:41.184Z</time>
      </trkpt>
      <trkpt lat="46.54596" lon="5.64426">
        <ele>651</ele>
        <time>2021-09-19T13:21:43.841Z</time>
      </trkpt>
      <trkpt lat="46.54621" lon="5.64431">
        <ele>649</ele>
        <time>2021-09-19T13:21:45.737Z</time>
      </trkpt>
      <trkpt lat="46.54644" lon="5.64442">
        <ele>648</ele>
        <time>2021-09-19T13:21:47.800Z</time>
      </trkpt>
      <trkpt lat="46.5466" lon="5.64451">
        <ele>661.4</ele>
        <time>2021-09-19T13:21:56.517Z</time>
      </trkpt>
      <trkpt lat="46.54686" lon="5.64465">
        <ele>648</ele>
        <time>2021-09-19T13:21:58.601Z</time>
      </trkpt>
      <trkpt lat="46.54702" lon="5.6448">
        <ele>648</ele>
        <time>2021-09-19T13:22:01.109Z</time>
      </trkpt>
      <trkpt lat="46.54725" lon="5.64487">
        <ele>646</ele>
        <time>2021-09-19T13:22:02.874Z</time>
      </trkpt>
      <trkpt lat="46.54744" lon="5.64478">
        <ele>645</ele>
        <time>2021-09-19T13:22:04.448Z</time>
      </trkpt>
      <trkpt lat="46.54757" lon="5.64493">
        <ele>654.3</ele>
        <time>2021-09-19T13:22:12.881Z</time>
      </trkpt>
      <trkpt lat="46.54774" lon="5.64507">
        <ele>642</ele>
        <time>2021-09-19T13:22:14.349Z</time>
      </trkpt>
      <trkpt lat="46.54792" lon="5.64525">
        <ele>638</ele>
        <time>2021-09-19T13:22:15.990Z</time>
      </trkpt>
      <trkpt lat="46.54807" lon="5.64535">
        <ele>650.4</ele>
        <time>2021-09-19T13:22:24.375Z</time>
      </trkpt>
      <trkpt lat="46.54825" lon="5.64543">
        <ele>638</ele>
        <time>2021-09-19T13:22:25.790Z</time>
      </trkpt>
      <trkpt lat="46.5484" lon="5.64546">
        <ele>649.4</ele>
        <time>2021-09-19T13:22:33.483Z</time>
      </trkpt>
      <trkpt lat="46.54856" lon="5.64564">
        <ele>638</ele>
        <time>2021-09-19T13:22:35.003Z</time>
      </trkpt>
      <trkpt lat="46.54868" lon="5.64601">
        <ele>638</ele>
        <time>2021-09-19T13:22:38.710Z</time>
      </trkpt>
      <trkpt lat="46.54868" lon="5.64617">
        <ele>643.3</ele>
        <time>2021-09-19T13:22:44.301Z</time>
      </trkpt>
      <trkpt lat="46.54887" lon="5.64609">
        <ele>637</ele>
        <time>2021-09-19T13:22:45.787Z</time>
      </trkpt>
      <trkpt lat="46.54909" lon="5.64589">
        <ele>637</ele>
        <time>2021-09-19T13:22:49.205Z</time>
      </trkpt>
      <trkpt lat="46.54933" lon="5.64567">
        <ele>639</ele>
        <time>2021-09-19T13:22:56.755Z</time>
      </trkpt>
      <trkpt lat="46.5497" lon="5.64533">
        <ele>645</ele>
        <time>2021-09-19T13:23:18.995Z</time>
      </trkpt>
      <trkpt lat="46.5501" lon="5.64499">
        <ele>652</ele>
        <time>2021-09-19T13:23:42.539Z</time>
      </trkpt>
      <trkpt lat="46.55029" lon="5.64469">
        <ele>657</ele>
        <time>2021-09-19T13:23:56.790Z</time>
      </trkpt>
      <trkpt lat="46.5506" lon="5.64421">
        <ele>662</ele>
        <time>2021-09-19T13:24:14.056Z</time>
      </trkpt>
      <trkpt lat="46.55062" lon="5.64385">
        <ele>662</ele>
        <time>2021-09-19T13:24:17.328Z</time>
      </trkpt>
      <trkpt lat="46.55064" lon="5.64342">
        <ele>662</ele>
        <time>2021-09-19T13:24:21.233Z</time>
      </trkpt>
      <trkpt lat="46.5507" lon="5.64283">
        <ele>662</ele>
        <time>2021-09-19T13:24:26.636Z</time>
      </trkpt>
      <trkpt lat="46.55096" lon="5.64234">
        <ele>662</ele>
        <time>2021-09-19T13:24:32.244Z</time>
      </trkpt>
      <trkpt lat="46.55135" lon="5.64213">
        <ele>663</ele>
        <time>2021-09-19T13:24:39.270Z</time>
      </trkpt>
      <trkpt lat="46.55169" lon="5.64185">
        <ele>665</ele>
        <time>2021-09-19T13:24:48.341Z</time>
      </trkpt>
      <trkpt lat="46.55129" lon="5.64157">
        <ele>668</ele>
        <time>2021-09-19T13:24:59.898Z</time>
      </trkpt>
      <trkpt lat="46.55104" lon="5.64108">
        <ele>670</ele>
        <time>2021-09-19T13:25:09.418Z</time>
      </trkpt>
      <trkpt lat="46.55105" lon="5.64074">
        <ele>671</ele>
        <time>2021-09-19T13:25:14.484Z</time>
      </trkpt>
      <trkpt lat="46.55107" lon="5.64039">
        <ele>673</ele>
        <time>2021-09-19T13:25:21.571Z</time>
      </trkpt>
      <trkpt lat="46.55129" lon="5.64018">
        <ele>673</ele>
        <time>2021-09-19T13:25:25.038Z</time>
      </trkpt>
      <trkpt lat="46.5516" lon="5.6399">
        <ele>671</ele>
        <time>2021-09-19T13:25:27.798Z</time>
      </trkpt>
      <trkpt lat="46.55184" lon="5.63972">
        <ele>670</ele>
        <time>2021-09-19T13:25:30.195Z</time>
      </trkpt>
      <trkpt lat="46.55217" lon="5.63949">
        <ele>666</ele>
        <time>2021-09-19T13:25:32.945Z</time>
      </trkpt>
      <trkpt lat="46.55252" lon="5.63914">
        <ele>664</ele>
        <time>2021-09-19T13:25:36.378Z</time>
      </trkpt>
      <trkpt lat="46.5529" lon="5.63891">
        <ele>662</ele>
        <time>2021-09-19T13:25:39.661Z</time>
      </trkpt>
      <trkpt lat="46.55335" lon="5.63878">
        <ele>662</ele>
        <time>2021-09-19T13:25:45.705Z</time>
      </trkpt>
      <trkpt lat="46.55359" lon="5.63881">
        <ele>662</ele>
        <time>2021-09-19T13:25:48.879Z</time>
      </trkpt>
      <trkpt lat="46.55383" lon="5.63884">
        <ele>661</ele>
        <time>2021-09-19T13:25:50.927Z</time>
      </trkpt>
      <trkpt lat="46.55414" lon="5.63863">
        <ele>661</ele>
        <time>2021-09-19T13:25:55.433Z</time>
      </trkpt>
      <trkpt lat="46.55449" lon="5.63856">
        <ele>661</ele>
        <time>2021-09-19T13:26:00.087Z</time>
      </trkpt>
      <trkpt lat="46.55481" lon="5.63849">
        <ele>662</ele>
        <time>2021-09-19T13:26:06.033Z</time>
      </trkpt>
      <trkpt lat="46.55513" lon="5.63841">
        <ele>665</ele>
        <time>2021-09-19T13:26:16.389Z</time>
      </trkpt>
      <trkpt lat="46.55555" lon="5.63832">
        <ele>665</ele>
        <time>2021-09-19T13:26:21.982Z</time>
      </trkpt>
      <trkpt lat="46.55591" lon="5.63835">
        <ele>667</ele>
        <time>2021-09-19T13:26:30.597Z</time>
      </trkpt>
      <trkpt lat="46.55618" lon="5.63831">
        <ele>667</ele>
        <time>2021-09-19T13:26:34.172Z</time>
      </trkpt>
      <trkpt lat="46.55653" lon="5.63825">
        <ele>667</ele>
        <time>2021-09-19T13:26:38.815Z</time>
      </trkpt>
      <trkpt lat="46.55685" lon="5.63835">
        <ele>664</ele>
        <time>2021-09-19T13:26:41.274Z</time>
      </trkpt>
      <trkpt lat="46.55717" lon="5.63845">
        <ele>657</ele>
        <time>2021-09-19T13:26:43.733Z</time>
      </trkpt>
      <trkpt lat="46.55762" lon="5.63859">
        <ele>647</ele>
        <time>2021-09-19T13:26:47.191Z</time>
      </trkpt>
      <trkpt lat="46.55791" lon="5.63862">
        <ele>643</ele>
        <time>2021-09-19T13:26:49.376Z</time>
      </trkpt>
      <trkpt lat="46.55816" lon="5.63863">
        <ele>639</ele>
        <time>2021-09-19T13:26:51.255Z</time>
      </trkpt>
      <trkpt lat="46.55846" lon="5.63865">
        <ele>636</ele>
        <time>2021-09-19T13:26:53.511Z</time>
      </trkpt>
      <trkpt lat="46.5587" lon="5.63858">
        <ele>634</ele>
        <time>2021-09-19T13:26:55.350Z</time>
      </trkpt>
      <trkpt lat="46.55898" lon="5.6385">
        <ele>631</ele>
        <time>2021-09-19T13:26:57.495Z</time>
      </trkpt>
      <trkpt lat="46.55941" lon="5.63842">
        <ele>627</ele>
        <time>2021-09-19T13:27:00.752Z</time>
      </trkpt>
      <trkpt lat="46.55964" lon="5.6383">
        <ele>625</ele>
        <time>2021-09-19T13:27:02.588Z</time>
      </trkpt>
      <trkpt lat="46.55989" lon="5.63817">
        <ele>620</ele>
        <time>2021-09-19T13:27:04.583Z</time>
      </trkpt>
      <trkpt lat="46.56031" lon="5.63809">
        <ele>613</ele>
        <time>2021-09-19T13:27:07.765Z</time>
      </trkpt>
      <trkpt lat="46.56072" lon="5.63807">
        <ele>608</ele>
        <time>2021-09-19T13:27:10.848Z</time>
      </trkpt>
      <trkpt lat="46.561" lon="5.63805">
        <ele>606</ele>
        <time>2021-09-19T13:27:12.954Z</time>
      </trkpt>
      <trkpt lat="46.56144" lon="5.63801">
        <ele>598</ele>
        <time>2021-09-19T13:27:16.267Z</time>
      </trkpt>
      <trkpt lat="46.5617" lon="5.63787">
        <ele>596</ele>
        <time>2021-09-19T13:27:18.350Z</time>
      </trkpt>
      <trkpt lat="46.56208" lon="5.63764">
        <ele>596</ele>
        <time>2021-09-19T13:27:23.772Z</time>
      </trkpt>
      <trkpt lat="46.56244" lon="5.63783">
        <ele>596</ele>
        <time>2021-09-19T13:27:28.817Z</time>
      </trkpt>
      <trkpt lat="46.5627" lon="5.6379">
        <ele>597</ele>
        <time>2021-09-19T13:27:34.147Z</time>
      </trkpt>
      <trkpt lat="46.56306" lon="5.63801">
        <ele>597</ele>
        <time>2021-09-19T13:27:38.993Z</time>
      </trkpt>
      <trkpt lat="46.56346" lon="5.63784">
        <ele>598</ele>
        <time>2021-09-19T13:27:46.030Z</time>
      </trkpt>
      <trkpt lat="46.56371" lon="5.63764">
        <ele>598</ele>
        <time>2021-09-19T13:27:49.788Z</time>
      </trkpt>
      <trkpt lat="46.56406" lon="5.63725">
        <ele>593</ele>
        <time>2021-09-19T13:27:53.101Z</time>
      </trkpt>
      <trkpt lat="46.56431" lon="5.6371">
        <ele>590</ele>
        <time>2021-09-19T13:27:55.133Z</time>
      </trkpt>
      <trkpt lat="46.56468" lon="5.63687">
        <ele>587</ele>
        <time>2021-09-19T13:27:58.157Z</time>
      </trkpt>
      <trkpt lat="46.5649" lon="5.63636">
        <ele>584</ele>
        <time>2021-09-19T13:28:01.267Z</time>
      </trkpt>
      <trkpt lat="46.56458" lon="5.63615">
        <ele>581</ele>
        <time>2021-09-19T13:28:03.905Z</time>
      </trkpt>
      <trkpt lat="46.56426" lon="5.63593">
        <ele>578</ele>
        <time>2021-09-19T13:28:06.564Z</time>
      </trkpt>
      <trkpt lat="46.56394" lon="5.63572">
        <ele>575</ele>
        <time>2021-09-19T13:28:09.202Z</time>
      </trkpt>
      <trkpt lat="46.56357" lon="5.63548">
        <ele>571</ele>
        <time>2021-09-19T13:28:12.246Z</time>
      </trkpt>
      <trkpt lat="46.56315" lon="5.63527">
        <ele>570</ele>
        <time>2021-09-19T13:28:16.841Z</time>
      </trkpt>
      <trkpt lat="46.56293" lon="5.6355">
        <ele>569</ele>
        <time>2021-09-19T13:28:19.249Z</time>
      </trkpt>
      <trkpt lat="46.56264" lon="5.63582">
        <ele>569</ele>
        <time>2021-09-19T13:28:24.044Z</time>
      </trkpt>
      <trkpt lat="46.5624" lon="5.63571">
        <ele>569</ele>
        <time>2021-09-19T13:28:27.359Z</time>
      </trkpt>
      <trkpt lat="46.5621" lon="5.63556">
        <ele>567</ele>
        <time>2021-09-19T13:28:29.605Z</time>
      </trkpt>
      <trkpt lat="46.56166" lon="5.63544">
        <ele>565</ele>
        <time>2021-09-19T13:28:33.302Z</time>
      </trkpt>
      <trkpt lat="46.5614" lon="5.63542">
        <ele>564</ele>
        <time>2021-09-19T13:28:35.583Z</time>
      </trkpt>
      <trkpt lat="46.56108" lon="5.63539">
        <ele>562</ele>
        <time>2021-09-19T13:28:37.865Z</time>
      </trkpt>
      <trkpt lat="46.56084" lon="5.63529">
        <ele>561</ele>
        <time>2021-09-19T13:28:40.017Z</time>
      </trkpt>
      <trkpt lat="46.56059" lon="5.63519">
        <ele>560</ele>
        <time>2021-09-19T13:28:42.285Z</time>
      </trkpt>
      <trkpt lat="46.56029" lon="5.63475">
        <ele>559</ele>
        <time>2021-09-19T13:28:46.645Z</time>
      </trkpt>
      <trkpt lat="46.56029" lon="5.63437">
        <ele>559</ele>
        <time>2021-09-19T13:28:50.088Z</time>
      </trkpt>
      <trkpt lat="46.56028" lon="5.63387">
        <ele>557</ele>
        <time>2021-09-19T13:28:52.618Z</time>
      </trkpt>
      <trkpt lat="46.56025" lon="5.63338">
        <ele>556</ele>
        <time>2021-09-19T13:28:55.858Z</time>
      </trkpt>
      <trkpt lat="46.56023" lon="5.63289">
        <ele>553</ele>
        <time>2021-09-19T13:28:58.394Z</time>
      </trkpt>
      <trkpt lat="46.5602" lon="5.63251">
        <ele>551</ele>
        <time>2021-09-19T13:29:00.370Z</time>
      </trkpt>
      <trkpt lat="46.56018" lon="5.63203">
        <ele>550</ele>
        <time>2021-09-19T13:29:03.514Z</time>
      </trkpt>
      <trkpt lat="46.56021" lon="5.63153">
        <ele>547</ele>
        <time>2021-09-19T13:29:06.107Z</time>
      </trkpt>
      <trkpt lat="46.56025" lon="5.63103">
        <ele>545</ele>
        <time>2021-09-19T13:29:08.661Z</time>
      </trkpt>
      <trkpt lat="46.56028" lon="5.63063">
        <ele>543</ele>
        <time>2021-09-19T13:29:10.740Z</time>
      </trkpt>
      <trkpt lat="46.56032" lon="5.63005">
        <ele>540</ele>
        <time>2021-09-19T13:29:13.752Z</time>
      </trkpt>
      <trkpt lat="46.56044" lon="5.62961">
        <ele>538</ele>
        <time>2021-09-19T13:29:16.084Z</time>
      </trkpt>
      <trkpt lat="46.56056" lon="5.62917">
        <ele>536</ele>
        <time>2021-09-19T13:29:18.417Z</time>
      </trkpt>
      <trkpt lat="46.56072" lon="5.62857">
        <ele>532</ele>
        <time>2021-09-19T13:29:21.741Z</time>
      </trkpt>
      <trkpt lat="46.56094" lon="5.6282">
        <ele>530</ele>
        <time>2021-09-19T13:29:24.190Z</time>
      </trkpt>
      <trkpt lat="46.56116" lon="5.62783">
        <ele>527</ele>
        <time>2021-09-19T13:29:26.717Z</time>
      </trkpt>
      <trkpt lat="46.56133" lon="5.62755">
        <ele>525</ele>
        <time>2021-09-19T13:29:28.647Z</time>
      </trkpt>
      <trkpt lat="46.56153" lon="5.62721">
        <ele>523</ele>
        <time>2021-09-19T13:29:30.792Z</time>
      </trkpt>
      <trkpt lat="46.5616" lon="5.62684">
        <ele>522</ele>
        <time>2021-09-19T13:29:33.115Z</time>
      </trkpt>
      <trkpt lat="46.56169" lon="5.62636">
        <ele>519</ele>
        <time>2021-09-19T13:29:35.685Z</time>
      </trkpt>
      <trkpt lat="46.56161" lon="5.62597">
        <ele>519</ele>
        <time>2021-09-19T13:29:39.371Z</time>
      </trkpt>
      <trkpt lat="46.56148" lon="5.62538">
        <ele>516</ele>
        <time>2021-09-19T13:29:42.572Z</time>
      </trkpt>
      <trkpt lat="46.56152" lon="5.62497">
        <ele>514</ele>
        <time>2021-09-19T13:29:44.712Z</time>
      </trkpt>
      <trkpt lat="46.56154" lon="5.62463">
        <ele>513</ele>
        <time>2021-09-19T13:29:46.687Z</time>
      </trkpt>
      <trkpt lat="46.56157" lon="5.6243">
        <ele>512</ele>
        <time>2021-09-19T13:29:48.594Z</time>
      </trkpt>
      <trkpt lat="46.56164" lon="5.62375">
        <ele>508</ele>
        <time>2021-09-19T13:29:51.484Z</time>
      </trkpt>
      <trkpt lat="46.56166" lon="5.6234">
        <ele>505</ele>
        <time>2021-09-19T13:29:53.298Z</time>
      </trkpt>
      <trkpt lat="46.56169" lon="5.62301">
        <ele>504</ele>
        <time>2021-09-19T13:29:55.693Z</time>
      </trkpt>
      <trkpt lat="46.56142" lon="5.62286">
        <ele>504</ele>
        <time>2021-09-19T13:29:59.501Z</time>
      </trkpt>
      <trkpt lat="46.56121" lon="5.62275">
        <ele>504</ele>
        <time>2021-09-19T13:30:02.441Z</time>
      </trkpt>
      <trkpt lat="46.56096" lon="5.62256">
        <ele>504</ele>
        <time>2021-09-19T13:30:06.157Z</time>
      </trkpt>
      <trkpt lat="46.56066" lon="5.6222">
        <ele>504</ele>
        <time>2021-09-19T13:30:11.281Z</time>
      </trkpt>
      <trkpt lat="46.56034" lon="5.62215">
        <ele>503</ele>
        <time>2021-09-19T13:30:14.315Z</time>
      </trkpt>
      <trkpt lat="46.56015" lon="5.62159">
        <ele>503</ele>
        <time>2021-09-19T13:30:19.971Z</time>
      </trkpt>
      <trkpt lat="46.56" lon="5.62104">
        <ele>500</ele>
        <time>2021-09-19T13:30:23.028Z</time>
      </trkpt>
      <trkpt lat="46.56004" lon="5.6205">
        <ele>495</ele>
        <time>2021-09-19T13:30:25.834Z</time>
      </trkpt>
      <trkpt lat="46.55987" lon="5.62021">
        <ele>495</ele>
        <time>2021-09-19T13:30:29.286Z</time>
      </trkpt>
      <trkpt lat="46.55964" lon="5.61981">
        <ele>495</ele>
        <time>2021-09-19T13:30:34.009Z</time>
      </trkpt>
      <trkpt lat="46.55942" lon="5.61947">
        <ele>493</ele>
        <time>2021-09-19T13:30:36.295Z</time>
      </trkpt>
      <trkpt lat="46.55906" lon="5.6191">
        <ele>492</ele>
        <time>2021-09-19T13:30:40.847Z</time>
      </trkpt>
      <trkpt lat="46.55872" lon="5.61904">
        <ele>493</ele>
        <time>2021-09-19T13:30:47.006Z</time>
      </trkpt>
      <trkpt lat="46.55838" lon="5.61898">
        <ele>494</ele>
        <time>2021-09-19T13:30:53.165Z</time>
      </trkpt>
      <trkpt lat="46.55813" lon="5.61894">
        <ele>503</ele>
        <time>2021-09-19T13:31:05.945Z</time>
      </trkpt>
      <trkpt lat="46.5578" lon="5.61889">
        <ele>508</ele>
        <time>2021-09-19T13:31:22.804Z</time>
      </trkpt>
      <trkpt lat="46.55762" lon="5.61864">
        <ele>508</ele>
        <time>2021-09-19T13:31:26.083Z</time>
      </trkpt>
      <trkpt lat="46.55739" lon="5.61835">
        <ele>505</ele>
        <time>2021-09-19T13:31:28.370Z</time>
      </trkpt>
      <trkpt lat="46.55711" lon="5.61826">
        <ele>505</ele>
        <time>2021-09-19T13:31:32.148Z</time>
      </trkpt>
      <trkpt lat="46.55687" lon="5.61818">
        <ele>503</ele>
        <time>2021-09-19T13:31:33.998Z</time>
      </trkpt>
      <trkpt lat="46.55661" lon="5.6181">
        <ele>501</ele>
        <time>2021-09-19T13:31:35.995Z</time>
      </trkpt>
      <trkpt lat="46.55628" lon="5.61811">
        <ele>500</ele>
        <time>2021-09-19T13:31:39.132Z</time>
      </trkpt>
      <trkpt lat="46.55595" lon="5.61812">
        <ele>498</ele>
        <time>2021-09-19T13:31:41.513Z</time>
      </trkpt>
      <trkpt lat="46.55571" lon="5.61813">
        <ele>498</ele>
        <time>2021-09-19T13:31:44.676Z</time>
      </trkpt>
      <trkpt lat="46.55544" lon="5.61814">
        <ele>497</ele>
        <time>2021-09-19T13:31:47.074Z</time>
      </trkpt>
      <trkpt lat="46.55505" lon="5.61819">
        <ele>496</ele>
        <time>2021-09-19T13:31:50.990Z</time>
      </trkpt>
      <trkpt lat="46.55478" lon="5.61818">
        <ele>496</ele>
        <time>2021-09-19T13:31:54.548Z</time>
      </trkpt>
      <trkpt lat="46.55442" lon="5.61818">
        <ele>495</ele>
        <time>2021-09-19T13:31:58.061Z</time>
      </trkpt>
      <trkpt lat="46.55417" lon="5.618">
        <ele>490</ele>
        <time>2021-09-19T13:32:00.157Z</time>
      </trkpt>
      <trkpt lat="46.55382" lon="5.61773">
        <ele>489</ele>
        <time>2021-09-19T13:32:04.133Z</time>
      </trkpt>
      <trkpt lat="46.55337" lon="5.61763">
        <ele>488</ele>
        <time>2021-09-19T13:32:08.872Z</time>
      </trkpt>
      <trkpt lat="46.55309" lon="5.61761">
        <ele>488</ele>
        <time>2021-09-19T13:32:12.565Z</time>
      </trkpt>
      <trkpt lat="46.55267" lon="5.61759">
        <ele>488</ele>
        <time>2021-09-19T13:32:18.101Z</time>
      </trkpt>
      <trkpt lat="46.55243" lon="5.61761">
        <ele>488</ele>
        <time>2021-09-19T13:32:21.268Z</time>
      </trkpt>
      <trkpt lat="46.55216" lon="5.61763">
        <ele>488</ele>
        <time>2021-09-19T13:32:24.830Z</time>
      </trkpt>
      <trkpt lat="46.55173" lon="5.61774">
        <ele>488</ele>
        <time>2021-09-19T13:32:30.581Z</time>
      </trkpt>
      <trkpt lat="46.55129" lon="5.61789">
        <ele>488</ele>
        <time>2021-09-19T13:32:36.535Z</time>
      </trkpt>
      <trkpt lat="46.551" lon="5.61796">
        <ele>488</ele>
        <time>2021-09-19T13:32:40.408Z</time>
      </trkpt>
      <trkpt lat="46.55068" lon="5.61838">
        <ele>491</ele>
        <time>2021-09-19T13:32:51.800Z</time>
      </trkpt>
      <trkpt lat="46.55045" lon="5.61837">
        <ele>492</ele>
        <time>2021-09-19T13:32:56.836Z</time>
      </trkpt>
      <trkpt lat="46.55021" lon="5.61836">
        <ele>492</ele>
        <time>2021-09-19T13:32:59.999Z</time>
      </trkpt>
      <trkpt lat="46.54995" lon="5.61831">
        <ele>492</ele>
        <time>2021-09-19T13:33:03.454Z</time>
      </trkpt>
      <trkpt lat="46.54959" lon="5.61825">
        <ele>491</ele>
        <time>2021-09-19T13:33:06.998Z</time>
      </trkpt>
      <trkpt lat="46.54937" lon="5.6184">
        <ele>491</ele>
        <time>2021-09-19T13:33:10.199Z</time>
      </trkpt>
      <trkpt lat="46.54913" lon="5.61858">
        <ele>491</ele>
        <time>2021-09-19T13:33:13.756Z</time>
      </trkpt>
      <trkpt lat="46.54888" lon="5.61848">
        <ele>491</ele>
        <time>2021-09-19T13:33:17.172Z</time>
      </trkpt>
      <trkpt lat="46.54857" lon="5.61835">
        <ele>490</ele>
        <time>2021-09-19T13:33:20.216Z</time>
      </trkpt>
      <trkpt lat="46.5483" lon="5.61812">
        <ele>488</ele>
        <time>2021-09-19T13:33:22.416Z</time>
      </trkpt>
      <trkpt lat="46.54803" lon="5.61788">
        <ele>488</ele>
        <time>2021-09-19T13:33:26.585Z</time>
      </trkpt>
      <trkpt lat="46.54771" lon="5.61761">
        <ele>488</ele>
        <time>2021-09-19T13:33:31.459Z</time>
      </trkpt>
      <trkpt lat="46.54748" lon="5.6177">
        <ele>493</ele>
        <time>2021-09-19T13:33:43.562Z</time>
      </trkpt>
      <trkpt lat="46.54724" lon="5.6178">
        <ele>495</ele>
        <time>2021-09-19T13:33:50.726Z</time>
      </trkpt>
      <trkpt lat="46.547" lon="5.61761">
        <ele>496</ele>
        <time>2021-09-19T13:33:56.141Z</time>
      </trkpt>
      <trkpt lat="46.54664" lon="5.61734">
        <ele>498</ele>
        <time>2021-09-19T13:34:05.434Z</time>
      </trkpt>
      <trkpt lat="46.54639" lon="5.61722">
        <ele>503</ele>
        <time>2021-09-19T13:34:18.812Z</time>
      </trkpt>
      <trkpt lat="46.54604" lon="5.61705">
        <ele>508</ele>
        <time>2021-09-19T13:34:37.563Z</time>
      </trkpt>
      <trkpt lat="46.54572" lon="5.61747">
        <ele>517</ele>
        <time>2021-09-19T13:34:59.468Z</time>
      </trkpt>
      <trkpt lat="46.54591" lon="5.61775">
        <ele>518</ele>
        <time>2021-09-19T13:35:04.856Z</time>
      </trkpt>
      <trkpt lat="46.54617" lon="5.61812">
        <ele>527</ele>
        <time>2021-09-19T13:35:23.343Z</time>
      </trkpt>
      <trkpt lat="46.54625" lon="5.61844">
        <ele>530</ele>
        <time>2021-09-19T13:35:34.392Z</time>
      </trkpt>
      <trkpt lat="46.54634" lon="5.61877">
        <ele>530</ele>
        <time>2021-09-19T13:35:37.608Z</time>
      </trkpt>
      <trkpt lat="46.54668" lon="5.61886">
        <ele>531</ele>
        <time>2021-09-19T13:35:43.803Z</time>
      </trkpt>
      <trkpt lat="46.54707" lon="5.61912">
        <ele>534</ele>
        <time>2021-09-19T13:35:55.170Z</time>
      </trkpt>
      <trkpt lat="46.54739" lon="5.61957">
        <ele>538</ele>
        <time>2021-09-19T13:36:09.048Z</time>
      </trkpt>
      <trkpt lat="46.54767" lon="5.62004">
        <ele>543</ele>
        <time>2021-09-19T13:36:26.591Z</time>
      </trkpt>
      <trkpt lat="46.54796" lon="5.62044">
        <ele>546</ele>
        <time>2021-09-19T13:36:37.607Z</time>
      </trkpt>
      <trkpt lat="46.54828" lon="5.62071">
        <ele>549</ele>
        <time>2021-09-19T13:36:48.309Z</time>
      </trkpt>
      <trkpt lat="46.54861" lon="5.62117">
        <ele>554</ele>
        <time>2021-09-19T13:37:05.545Z</time>
      </trkpt>
      <trkpt lat="46.54869" lon="5.62159">
        <ele>559</ele>
        <time>2021-09-19T13:37:20.775Z</time>
      </trkpt>
      <trkpt lat="46.54853" lon="5.6219">
        <ele>560</ele>
        <time>2021-09-19T13:37:26.125Z</time>
      </trkpt>
      <trkpt lat="46.54829" lon="5.62233">
        <ele>565</ele>
        <time>2021-09-19T13:37:44.894Z</time>
      </trkpt>
      <trkpt lat="46.54797" lon="5.62243">
        <ele>571</ele>
        <time>2021-09-19T13:38:01.525Z</time>
      </trkpt>
      <trkpt lat="46.54763" lon="5.62257">
        <ele>578</ele>
        <time>2021-09-19T13:38:19.481Z</time>
      </trkpt>
      <trkpt lat="46.54732" lon="5.62274">
        <ele>584</ele>
        <time>2021-09-19T13:38:36.317Z</time>
      </trkpt>
      <trkpt lat="46.54699" lon="5.62253">
        <ele>587</ele>
        <time>2021-09-19T13:38:46.929Z</time>
      </trkpt>
      <trkpt lat="46.54667" lon="5.62252">
        <ele>593</ele>
        <time>2021-09-19T13:39:03.193Z</time>
      </trkpt>
      <trkpt lat="46.54629" lon="5.62292">
        <ele>605</ele>
        <time>2021-09-19T13:39:27.031Z</time>
      </trkpt>
      <trkpt lat="46.54599" lon="5.62322">
        <ele>606</ele>
        <time>2021-09-19T13:39:33.440Z</time>
      </trkpt>
      <trkpt lat="46.54577" lon="5.62347">
        <ele>604</ele>
        <time>2021-09-19T13:39:35.538Z</time>
      </trkpt>
      <trkpt lat="46.54544" lon="5.62383">
        <ele>602</ele>
        <time>2021-09-19T13:39:38.832Z</time>
      </trkpt>
      <trkpt lat="46.54528" lon="5.62413">
        <ele>602</ele>
        <time>2021-09-19T13:39:42.271Z</time>
      </trkpt>
      <trkpt lat="46.54507" lon="5.62452">
        <ele>601</ele>
        <time>2021-09-19T13:39:45.541Z</time>
      </trkpt>
      <trkpt lat="46.54485" lon="5.62463">
        <ele>600</ele>
        <time>2021-09-19T13:39:47.493Z</time>
      </trkpt>
      <trkpt lat="46.54462" lon="5.62475">
        <ele>600</ele>
        <time>2021-09-19T13:39:50.712Z</time>
      </trkpt>
      <trkpt lat="46.54444" lon="5.62502">
        <ele>603</ele>
        <time>2021-09-19T13:40:01.208Z</time>
      </trkpt>
      <trkpt lat="46.5442" lon="5.62538">
        <ele>603</ele>
        <time>2021-09-19T13:40:05.751Z</time>
      </trkpt>
      <trkpt lat="46.54397" lon="5.62572">
        <ele>599</ele>
        <time>2021-09-19T13:40:08.216Z</time>
      </trkpt>
      <trkpt lat="46.54386" lon="5.62602">
        <ele>597</ele>
        <time>2021-09-19T13:40:09.973Z</time>
      </trkpt>
      <trkpt lat="46.54375" lon="5.62634">
        <ele>595</ele>
        <time>2021-09-19T13:40:11.821Z</time>
      </trkpt>
      <trkpt lat="46.5435" lon="5.62649">
        <ele>592</ele>
        <time>2021-09-19T13:40:13.853Z</time>
      </trkpt>
      <trkpt lat="46.54314" lon="5.6267">
        <ele>592</ele>
        <time>2021-09-19T13:40:18.964Z</time>
      </trkpt>
      <trkpt lat="46.54287" lon="5.6267">
        <ele>593</ele>
        <time>2021-09-19T13:40:24.347Z</time>
      </trkpt>
      <trkpt lat="46.54251" lon="5.62671">
        <ele>595</ele>
        <time>2021-09-19T13:40:32.954Z</time>
      </trkpt>
      <trkpt lat="46.54208" lon="5.62651">
        <ele>610</ele>
        <time>2021-09-19T13:40:55.894Z</time>
      </trkpt>
      <trkpt lat="46.54184" lon="5.62649">
        <ele>620</ele>
        <time>2021-09-19T13:41:08.110Z</time>
      </trkpt>
      <trkpt lat="46.54158" lon="5.62647">
        <ele>624</ele>
        <time>2021-09-19T13:41:21.340Z</time>
      </trkpt>
      <trkpt lat="46.54122" lon="5.62626">
        <ele>634</ele>
        <time>2021-09-19T13:41:41.050Z</time>
      </trkpt>
      <trkpt lat="46.54098" lon="5.62602">
        <ele>634</ele>
        <time>2021-09-19T13:41:44.887Z</time>
      </trkpt>
      <trkpt lat="46.54078" lon="5.62581">
        <ele>634</ele>
        <time>2021-09-19T13:41:48.137Z</time>
      </trkpt>
      <trkpt lat="46.54055" lon="5.62558">
        <ele>632</ele>
        <time>2021-09-19T13:41:50.235Z</time>
      </trkpt>
      <trkpt lat="46.54039" lon="5.6253">
        <ele>631</ele>
        <time>2021-09-19T13:41:52.396Z</time>
      </trkpt>
      <trkpt lat="46.54018" lon="5.62496">
        <ele>629</ele>
        <time>2021-09-19T13:41:54.611Z</time>
      </trkpt>
      <trkpt lat="46.53994" lon="5.62472">
        <ele>626</ele>
        <time>2021-09-19T13:41:56.800Z</time>
      </trkpt>
      <trkpt lat="46.53973" lon="5.62452">
        <ele>621</ele>
        <time>2021-09-19T13:41:58.686Z</time>
      </trkpt>
      <trkpt lat="46.53949" lon="5.62429">
        <ele>617</ele>
        <time>2021-09-19T13:42:00.846Z</time>
      </trkpt>
      <trkpt lat="46.53916" lon="5.62384">
        <ele>618</ele>
        <time>2021-09-19T13:42:08.319Z</time>
      </trkpt>
      <trkpt lat="46.53878" lon="5.62367">
        <ele>620</ele>
        <time>2021-09-19T13:42:17.496Z</time>
      </trkpt>
      <trkpt lat="46.53834" lon="5.62363">
        <ele>620</ele>
        <time>2021-09-19T13:42:23.304Z</time>
      </trkpt>
      <trkpt lat="46.53811" lon="5.62353">
        <ele>623</ele>
        <time>2021-09-19T13:42:34.172Z</time>
      </trkpt>
      <trkpt lat="46.53785" lon="5.62343">
        <ele>625</ele>
        <time>2021-09-19T13:42:41.544Z</time>
      </trkpt>
      <trkpt lat="46.53761" lon="5.62335">
        <ele>627</ele>
        <time>2021-09-19T13:42:48.675Z</time>
      </trkpt>
      <trkpt lat="46.53732" lon="5.62325">
        <ele>628</ele>
        <time>2021-09-19T13:42:54.344Z</time>
      </trkpt>
      <trkpt lat="46.53709" lon="5.62314">
        <ele>629</ele>
        <time>2021-09-19T13:42:59.474Z</time>
      </trkpt>
      <trkpt lat="46.53686" lon="5.62302">
        <ele>630</ele>
        <time>2021-09-19T13:43:04.624Z</time>
      </trkpt>
      <trkpt lat="46.53653" lon="5.6227">
        <ele>628</ele>
        <time>2021-09-19T13:43:07.738Z</time>
      </trkpt>
      <trkpt lat="46.53626" lon="5.62249">
        <ele>628</ele>
        <time>2021-09-19T13:43:11.772Z</time>
      </trkpt>
      <trkpt lat="46.53629" lon="5.62241">
        <ele>635.2</ele>
        <time>2021-09-19T13:43:14.957Z</time>
      </trkpt>
      <trkpt lat="46.53632" lon="5.62231">
        <ele>635.2</ele>
        <time>2021-09-19T13:43:15.945Z</time>
      </trkpt>
      <trkpt lat="46.53633" lon="5.62221">
        <ele>629</ele>
        <time>2021-09-19T13:43:16.468Z</time>
      </trkpt>
      <trkpt lat="46.53639" lon="5.62199">
        <ele>634.8</ele>
        <time>2021-09-19T13:43:24.740Z</time>
      </trkpt>
      <trkpt lat="46.53639" lon="5.62196">
        <ele>634.7</ele>
        <time>2021-09-19T13:43:24.905Z</time>
      </trkpt>
      <trkpt lat="46.53643" lon="5.62194">
        <ele>636</ele>
        <time>2021-09-19T13:43:27.054Z</time>
      </trkpt>
      <trkpt lat="46.53645" lon="5.62195">
        <ele>635.4</ele>
        <time>2021-09-19T13:43:27.213Z</time>
      </trkpt>
      <trkpt lat="46.53648" lon="5.62193">
        <ele>635.7</ele>
        <time>2021-09-19T13:43:28.252Z</time>
      </trkpt>
      <trkpt lat="46.53655" lon="5.62198">
        <ele>636.7</ele>
        <time>2021-09-19T13:43:31.937Z</time>
      </trkpt>
      <trkpt lat="46.53656" lon="5.62206">
        <ele>639</ele>
        <time>2021-09-19T13:43:34.779Z</time>
      </trkpt>
      <trkpt lat="46.5366" lon="5.62216">
        <ele>638</ele>
        <time>2021-09-19T13:43:35.377Z</time>
      </trkpt>
      <trkpt lat="46.53677" lon="5.62231">
        <ele>641</ele>
        <time>2021-09-19T13:43:45.482Z</time>
      </trkpt>
      <trkpt lat="46.53688" lon="5.62234">
        <ele>638.8</ele>
        <time>2021-09-19T13:43:46.323Z</time>
      </trkpt>
      <trkpt lat="46.53692" lon="5.62239">
        <ele>638.9</ele>
        <time>2021-09-19T13:43:47.164Z</time>
      </trkpt>
      <trkpt lat="46.53695" lon="5.62246">
        <ele>639</ele>
        <time>2021-09-19T13:43:48.055Z</time>
      </trkpt>
      <trkpt lat="46.53705" lon="5.62253">
        <ele>638.9</ele>
        <time>2021-09-19T13:43:49.412Z</time>
      </trkpt>
      <trkpt lat="46.53706" lon="5.6226">
        <ele>638.6</ele>
        <time>2021-09-19T13:43:49.766Z</time>
      </trkpt>
      <trkpt lat="46.5373" lon="5.62281">
        <ele>637</ele>
        <time>2021-09-19T13:43:51.844Z</time>
      </trkpt>
      <trkpt lat="46.53742" lon="5.62294">
        <ele>636.5</ele>
        <time>2021-09-19T13:43:53.222Z</time>
      </trkpt>
      <trkpt lat="46.5375" lon="5.62298">
        <ele>636</ele>
        <time>2021-09-19T13:43:53.839Z</time>
      </trkpt>
      <trkpt lat="46.53754" lon="5.62298">
        <ele>636.3</ele>
        <time>2021-09-19T13:43:54.941Z</time>
      </trkpt>
      <trkpt lat="46.53764" lon="5.6229">
        <ele>636.6</ele>
        <time>2021-09-19T13:43:56.922Z</time>
      </trkpt>
      <trkpt lat="46.53778" lon="5.62287">
        <ele>636</ele>
        <time>2021-09-19T13:43:58.115Z</time>
      </trkpt>
      <trkpt lat="46.53797" lon="5.6229">
        <ele>636</ele>
        <time>2021-09-19T13:44:00.633Z</time>
      </trkpt>
      <trkpt lat="46.53804" lon="5.62266">
        <ele>637.4</ele>
        <time>2021-09-19T13:44:05.695Z</time>
      </trkpt>
      <trkpt lat="46.53801" lon="5.62254">
        <ele>632</ele>
        <time>2021-09-19T13:44:06.355Z</time>
      </trkpt>
      <trkpt lat="46.53797" lon="5.62239">
        <ele>636.9</ele>
        <time>2021-09-19T13:44:11.978Z</time>
      </trkpt>
      <trkpt lat="46.53786" lon="5.62223">
        <ele>629</ele>
        <time>2021-09-19T13:44:13.147Z</time>
      </trkpt>
      <trkpt lat="46.53783" lon="5.62178">
        <ele>623</ele>
        <time>2021-09-19T13:44:15.484Z</time>
      </trkpt>
      <trkpt lat="46.53789" lon="5.62165">
        <ele>630</ele>
        <time>2021-09-19T13:44:20.956Z</time>
      </trkpt>
      <trkpt lat="46.53786" lon="5.62142">
        <ele>619</ele>
        <time>2021-09-19T13:44:22.166Z</time>
      </trkpt>
      <trkpt lat="46.53782" lon="5.62119">
        <ele>625.5</ele>
        <time>2021-09-19T13:44:30.458Z</time>
      </trkpt>
      <trkpt lat="46.53782" lon="5.62102">
        <ele>615</ele>
        <time>2021-09-19T13:44:31.337Z</time>
      </trkpt>
      <trkpt lat="46.53785" lon="5.62078">
        <ele>620.6</ele>
        <time>2021-09-19T13:44:39.863Z</time>
      </trkpt>
      <trkpt lat="46.5378" lon="5.62044">
        <ele>610</ele>
        <time>2021-09-19T13:44:41.660Z</time>
      </trkpt>
      <trkpt lat="46.53778" lon="5.62032">
        <ele>616.2</ele>
        <time>2021-09-19T13:44:45.976Z</time>
      </trkpt>
      <trkpt lat="46.5379" lon="5.62013">
        <ele>607</ele>
        <time>2021-09-19T13:44:47.309Z</time>
      </trkpt>
      <trkpt lat="46.53798" lon="5.61985">
        <ele>602</ele>
        <time>2021-09-19T13:44:48.876Z</time>
      </trkpt>
      <trkpt lat="46.53803" lon="5.61961">
        <ele>606.3</ele>
        <time>2021-09-19T13:44:57.641Z</time>
      </trkpt>
      <trkpt lat="46.5381" lon="5.61944">
        <ele>596</ele>
        <time>2021-09-19T13:44:58.665Z</time>
      </trkpt>
      <trkpt lat="46.53823" lon="5.6193">
        <ele>601.3</ele>
        <time>2021-09-19T13:45:06.886Z</time>
      </trkpt>
      <trkpt lat="46.53831" lon="5.6191">
        <ele>592</ele>
        <time>2021-09-19T13:45:08.081Z</time>
      </trkpt>
      <trkpt lat="46.53828" lon="5.61889">
        <ele>596.7</ele>
        <time>2021-09-19T13:45:15.578Z</time>
      </trkpt>
      <trkpt lat="46.53828" lon="5.61879">
        <ele>588</ele>
        <time>2021-09-19T13:45:16.095Z</time>
      </trkpt>
      <trkpt lat="46.5383" lon="5.61865">
        <ele>594.3</ele>
        <time>2021-09-19T13:45:21.093Z</time>
      </trkpt>
      <trkpt lat="46.53831" lon="5.61853">
        <ele>593</ele>
        <time>2021-09-19T13:45:21.718Z</time>
      </trkpt>
      <trkpt lat="46.5383" lon="5.61841">
        <ele>586</ele>
        <time>2021-09-19T13:45:22.342Z</time>
      </trkpt>
      <trkpt lat="46.53828" lon="5.61829">
        <ele>590.8</ele>
        <time>2021-09-19T13:45:26.658Z</time>
      </trkpt>
      <trkpt lat="46.53825" lon="5.61819">
        <ele>589.7</ele>
        <time>2021-09-19T13:45:27.222Z</time>
      </trkpt>
      <trkpt lat="46.53826" lon="5.61808">
        <ele>584</ele>
        <time>2021-09-19T13:45:27.795Z</time>
      </trkpt>
      <trkpt lat="46.53833" lon="5.61791">
        <ele>585.9</ele>
        <time>2021-09-19T13:45:34.721Z</time>
      </trkpt>
      <trkpt lat="46.53836" lon="5.61773">
        <ele>581</ele>
        <time>2021-09-19T13:45:35.678Z</time>
      </trkpt>
      <trkpt lat="46.53831" lon="5.6176">
        <ele>582.2</ele>
        <time>2021-09-19T13:45:39.891Z</time>
      </trkpt>
      <trkpt lat="46.53835" lon="5.61729">
        <ele>573</ele>
        <time>2021-09-19T13:45:41.521Z</time>
      </trkpt>
      <trkpt lat="46.5383" lon="5.6171">
        <ele>575.2</ele>
        <time>2021-09-19T13:45:48.632Z</time>
      </trkpt>
      <trkpt lat="46.53829" lon="5.61694">
        <ele>570</ele>
        <time>2021-09-19T13:45:49.462Z</time>
      </trkpt>
      <trkpt lat="46.53832" lon="5.61671">
        <ele>569.6</ele>
        <time>2021-09-19T13:45:51.085Z</time>
      </trkpt>
      <trkpt lat="46.53829" lon="5.61645">
        <ele>567</ele>
        <time>2021-09-19T13:45:52.448Z</time>
      </trkpt>
      <trkpt lat="46.53831" lon="5.61629">
        <ele>563.6</ele>
        <time>2021-09-19T13:45:53.288Z</time>
      </trkpt>
      <trkpt lat="46.53832" lon="5.61618">
        <ele>562</ele>
        <time>2021-09-19T13:45:53.862Z</time>
      </trkpt>
      <trkpt lat="46.53838" lon="5.616">
        <ele>561</ele>
        <time>2021-09-19T13:45:54.895Z</time>
      </trkpt>
      <trkpt lat="46.53842" lon="5.61576">
        <ele>556.1</ele>
        <time>2021-09-19T13:45:56.172Z</time>
      </trkpt>
      <trkpt lat="46.53853" lon="5.61554">
        <ele>554</ele>
        <time>2021-09-19T13:45:57.577Z</time>
      </trkpt>
      <trkpt lat="46.53857" lon="5.61561">
        <ele>554.2</ele>
        <time>2021-09-19T13:45:58.743Z</time>
      </trkpt>
      <trkpt lat="46.53873" lon="5.61561">
        <ele>553</ele>
        <time>2021-09-19T13:45:59.945Z</time>
      </trkpt>
      <trkpt lat="46.53895" lon="5.61561">
        <ele>553</ele>
        <time>2021-09-19T13:46:02.844Z</time>
      </trkpt>
      <trkpt lat="46.53905" lon="5.61564">
        <ele>554.3</ele>
        <time>2021-09-19T13:46:07.611Z</time>
      </trkpt>
      <trkpt lat="46.53921" lon="5.61564">
        <ele>552</ele>
        <time>2021-09-19T13:46:08.813Z</time>
      </trkpt>
      <trkpt lat="46.53933" lon="5.61562">
        <ele>554</ele>
        <time>2021-09-19T13:46:14.950Z</time>
      </trkpt>
      <trkpt lat="46.53936" lon="5.61564">
        <ele>554.3</ele>
        <time>2021-09-19T13:46:15.989Z</time>
      </trkpt>
      <trkpt lat="46.53937" lon="5.61564">
        <ele>554.3</ele>
        <time>2021-09-19T13:46:16.121Z</time>
      </trkpt>
      <trkpt lat="46.53937" lon="5.61563">
        <ele>554.1</ele>
        <time>2021-09-19T13:46:16.172Z</time>
      </trkpt>
      <trkpt lat="46.5394" lon="5.61561">
        <ele>552</ele>
        <time>2021-09-19T13:46:16.420Z</time>
      </trkpt>
      <trkpt lat="46.53946" lon="5.61552">
        <ele>552.6</ele>
        <time>2021-09-19T13:46:18.699Z</time>
      </trkpt>
      <trkpt lat="46.53946" lon="5.61528">
        <ele>545</ele>
        <time>2021-09-19T13:46:19.939Z</time>
      </trkpt>
      <trkpt lat="46.5394" lon="5.6151">
        <ele>546.7</ele>
        <time>2021-09-19T13:46:26.057Z</time>
      </trkpt>
      <trkpt lat="46.53936" lon="5.61497">
        <ele>539</ele>
        <time>2021-09-19T13:46:26.793Z</time>
      </trkpt>
      <trkpt lat="46.53934" lon="5.61481">
        <ele>541.7</ele>
        <time>2021-09-19T13:46:32.477Z</time>
      </trkpt>
      <trkpt lat="46.53934" lon="5.61469">
        <ele>532</ele>
        <time>2021-09-19T13:46:33.097Z</time>
      </trkpt>
      <trkpt lat="46.53938" lon="5.61457">
        <ele>537.4</ele>
        <time>2021-09-19T13:46:37.758Z</time>
      </trkpt>
      <trkpt lat="46.53936" lon="5.61421">
        <ele>524</ele>
        <time>2021-09-19T13:46:39.625Z</time>
      </trkpt>
      <trkpt lat="46.53918" lon="5.61401">
        <ele>519</ele>
        <time>2021-09-19T13:46:41.327Z</time>
      </trkpt>
      <trkpt lat="46.53917" lon="5.61394">
        <ele>525.1</ele>
        <time>2021-09-19T13:46:43.826Z</time>
      </trkpt>
      <trkpt lat="46.53919" lon="5.61378">
        <ele>521.6</ele>
        <time>2021-09-19T13:46:44.667Z</time>
      </trkpt>
      <trkpt lat="46.53926" lon="5.6137">
        <ele>513</ele>
        <time>2021-09-19T13:46:45.336Z</time>
      </trkpt>
      <trkpt lat="46.53944" lon="5.61358">
        <ele>510</ele>
        <time>2021-09-19T13:46:46.824Z</time>
      </trkpt>
      <trkpt lat="46.53932" lon="5.61344">
        <ele>514.1</ele>
        <time>2021-09-19T13:46:54.642Z</time>
      </trkpt>
      <trkpt lat="46.53913" lon="5.6134">
        <ele>506</ele>
        <time>2021-09-19T13:46:56.084Z</time>
      </trkpt>
      <trkpt lat="46.53883" lon="5.61326">
        <ele>504</ele>
        <time>2021-09-19T13:46:58.307Z</time>
      </trkpt>
      <trkpt lat="46.53862" lon="5.61313">
        <ele>502</ele>
        <time>2021-09-19T13:47:00.022Z</time>
      </trkpt>
      <trkpt lat="46.53839" lon="5.61299">
        <ele>499</ele>
        <time>2021-09-19T13:47:01.895Z</time>
      </trkpt>
      <trkpt lat="46.5382" lon="5.61291">
        <ele>498</ele>
        <time>2021-09-19T13:47:03.446Z</time>
      </trkpt>
      <trkpt lat="46.538" lon="5.61285">
        <ele>496</ele>
        <time>2021-09-19T13:47:04.981Z</time>
      </trkpt>
      <trkpt lat="46.53779" lon="5.6127">
        <ele>495</ele>
        <time>2021-09-19T13:47:06.948Z</time>
      </trkpt>
      <trkpt lat="46.53757" lon="5.61249">
        <ele>494</ele>
        <time>2021-09-19T13:47:09.263Z</time>
      </trkpt>
      <trkpt lat="46.53741" lon="5.61228">
        <ele>494</ele>
        <time>2021-09-19T13:47:12.103Z</time>
      </trkpt>
      <trkpt lat="46.53721" lon="5.61213">
        <ele>494</ele>
        <time>2021-09-19T13:47:15.067Z</time>
      </trkpt>
      <trkpt lat="46.53686" lon="5.61181">
        <ele>494</ele>
        <time>2021-09-19T13:47:20.514Z</time>
      </trkpt>
      <trkpt lat="46.53667" lon="5.61169">
        <ele>494</ele>
        <time>2021-09-19T13:47:23.243Z</time>
      </trkpt>
      <trkpt lat="46.53644" lon="5.6115">
        <ele>495</ele>
        <time>2021-09-19T13:47:28.574Z</time>
      </trkpt>
      <trkpt lat="46.53613" lon="5.61124">
        <ele>495</ele>
        <time>2021-09-19T13:47:33.289Z</time>
      </trkpt>
      <trkpt lat="46.53595" lon="5.61111">
        <ele>494</ele>
        <time>2021-09-19T13:47:34.876Z</time>
      </trkpt>
      <trkpt lat="46.53579" lon="5.61093">
        <ele>494</ele>
        <time>2021-09-19T13:47:37.541Z</time>
      </trkpt>
      <trkpt lat="46.53558" lon="5.61086">
        <ele>494</ele>
        <time>2021-09-19T13:47:40.380Z</time>
      </trkpt>
      <trkpt lat="46.53536" lon="5.61074">
        <ele>494</ele>
        <time>2021-09-19T13:47:43.475Z</time>
      </trkpt>
      <trkpt lat="46.53512" lon="5.61057">
        <ele>494</ele>
        <time>2021-09-19T13:47:46.992Z</time>
      </trkpt>
      <trkpt lat="46.53479" lon="5.61021">
        <ele>494</ele>
        <time>2021-09-19T13:47:52.428Z</time>
      </trkpt>
      <trkpt lat="46.53463" lon="5.61">
        <ele>494</ele>
        <time>2021-09-19T13:47:55.267Z</time>
      </trkpt>
      <trkpt lat="46.53447" lon="5.60983">
        <ele>494</ele>
        <time>2021-09-19T13:47:57.878Z</time>
      </trkpt>
      <trkpt lat="46.53431" lon="5.60966">
        <ele>495</ele>
        <time>2021-09-19T13:48:02.457Z</time>
      </trkpt>
      <trkpt lat="46.53412" lon="5.60949">
        <ele>495</ele>
        <time>2021-09-19T13:48:05.396Z</time>
      </trkpt>
      <trkpt lat="46.53396" lon="5.60937">
        <ele>499.9</ele>
        <time>2021-09-19T13:48:14.545Z</time>
      </trkpt>
      <trkpt lat="46.53379" lon="5.6093">
        <ele>496</ele>
        <time>2021-09-19T13:48:15.872Z</time>
      </trkpt>
      <trkpt lat="46.53363" lon="5.60925">
        <ele>500.6</ele>
        <time>2021-09-19T13:48:24.188Z</time>
      </trkpt>
      <trkpt lat="46.53347" lon="5.60917">
        <ele>497</ele>
        <time>2021-09-19T13:48:25.460Z</time>
      </trkpt>
      <trkpt lat="46.53332" lon="5.60915">
        <ele>501</ele>
        <time>2021-09-19T13:48:33.114Z</time>
      </trkpt>
      <trkpt lat="46.53281" lon="5.60893">
        <ele>497</ele>
        <time>2021-09-19T13:48:37.111Z</time>
      </trkpt>
      <trkpt lat="46.5326" lon="5.60883">
        <ele>497</ele>
        <time>2021-09-19T13:48:40.022Z</time>
      </trkpt>
      <trkpt lat="46.53241" lon="5.60876">
        <ele>497</ele>
        <time>2021-09-19T13:48:42.604Z</time>
      </trkpt>
      <trkpt lat="46.53222" lon="5.60871">
        <ele>497</ele>
        <time>2021-09-19T13:48:45.148Z</time>
      </trkpt>
      <trkpt lat="46.53202" lon="5.60867">
        <ele>497</ele>
        <time>2021-09-19T13:48:47.808Z</time>
      </trkpt>
      <trkpt lat="46.53184" lon="5.60861">
        <ele>501.6</ele>
        <time>2021-09-19T13:48:57.191Z</time>
      </trkpt>
      <trkpt lat="46.53163" lon="5.60858">
        <ele>497</ele>
        <time>2021-09-19T13:48:58.777Z</time>
      </trkpt>
      <trkpt lat="46.53143" lon="5.60859">
        <ele>497</ele>
        <time>2021-09-19T13:49:01.413Z</time>
      </trkpt>
      <trkpt lat="46.53119" lon="5.60858">
        <ele>497</ele>
        <time>2021-09-19T13:49:04.576Z</time>
      </trkpt>
      <trkpt lat="46.53097" lon="5.6086">
        <ele>499</ele>
        <time>2021-09-19T13:49:11.502Z</time>
      </trkpt>
      <trkpt lat="46.5307" lon="5.60862">
        <ele>499</ele>
        <time>2021-09-19T13:49:15.064Z</time>
      </trkpt>
      <trkpt lat="46.53029" lon="5.60864">
        <ele>499</ele>
        <time>2021-09-19T13:49:20.468Z</time>
      </trkpt>
      <trkpt lat="46.5305" lon="5.60875">
        <ele>502</ele>
        <time>2021-09-19T13:49:31.811Z</time>
      </trkpt>
      <trkpt lat="46.53071" lon="5.60881">
        <ele>504</ele>
        <time>2021-09-19T13:49:38.703Z</time>
      </trkpt>
      <trkpt lat="46.53107" lon="5.609">
        <ele>508</ele>
        <time>2021-09-19T13:49:52.417Z</time>
      </trkpt>
      <trkpt lat="46.53124" lon="5.60906">
        <ele>511</ele>
        <time>2021-09-19T13:50:01.306Z</time>
      </trkpt>
      <trkpt lat="46.53158" lon="5.6093">
        <ele>513</ele>
        <time>2021-09-19T13:50:10.182Z</time>
      </trkpt>
      <trkpt lat="46.53177" lon="5.60941">
        <ele>517</ele>
        <time>2021-09-19T13:50:20.575Z</time>
      </trkpt>
      <trkpt lat="46.53195" lon="5.6095">
        <ele>518</ele>
        <time>2021-09-19T13:50:25.033Z</time>
      </trkpt>
      <trkpt lat="46.53211" lon="5.60967">
        <ele>519</ele>
        <time>2021-09-19T13:50:29.612Z</time>
      </trkpt>
      <trkpt lat="46.53225" lon="5.60976">
        <ele>524.3</ele>
        <time>2021-09-19T13:50:37.391Z</time>
      </trkpt>
      <trkpt lat="46.53239" lon="5.61">
        <ele>523</ele>
        <time>2021-09-19T13:50:38.960Z</time>
      </trkpt>
      <trkpt lat="46.5325" lon="5.61014">
        <ele>531.4</ele>
        <time>2021-09-19T13:50:46.389Z</time>
      </trkpt>
      <trkpt lat="46.53292" lon="5.6108">
        <ele>534</ele>
        <time>2021-09-19T13:50:59.639Z</time>
      </trkpt>
      <trkpt lat="46.53305" lon="5.61099">
        <ele>537</ele>
        <time>2021-09-19T13:51:09.006Z</time>
      </trkpt>
      <trkpt lat="46.53317" lon="5.6112">
        <ele>544.8</ele>
        <time>2021-09-19T13:51:18.549Z</time>
      </trkpt>
      <trkpt lat="46.53332" lon="5.61141">
        <ele>543</ele>
        <time>2021-09-19T13:51:20.114Z</time>
      </trkpt>
      <trkpt lat="46.53345" lon="5.61162">
        <ele>546</ele>
        <time>2021-09-19T13:51:29.989Z</time>
      </trkpt>
      <trkpt lat="46.53372" lon="5.61211">
        <ele>551</ele>
        <time>2021-09-19T13:51:47.472Z</time>
      </trkpt>
      <trkpt lat="46.53386" lon="5.6123">
        <ele>551</ele>
        <time>2021-09-19T13:51:49.995Z</time>
      </trkpt>
      <trkpt lat="46.53391" lon="5.61249">
        <ele>561.8</ele>
        <time>2021-09-19T13:51:57.106Z</time>
      </trkpt>
      <trkpt lat="46.534" lon="5.61268">
        <ele>557</ele>
        <time>2021-09-19T13:51:58.298Z</time>
      </trkpt>
      <trkpt lat="46.53406" lon="5.61293">
        <ele>562</ele>
        <time>2021-09-19T13:52:07.554Z</time>
      </trkpt>
      <trkpt lat="46.53405" lon="5.61307">
        <ele>569.8</ele>
        <time>2021-09-19T13:52:12.474Z</time>
      </trkpt>
      <trkpt lat="46.53411" lon="5.61347">
        <ele>563</ele>
        <time>2021-09-19T13:52:14.590Z</time>
      </trkpt>
      <trkpt lat="46.53388" lon="5.61331">
        <ele>564</ele>
        <time>2021-09-19T13:52:19.832Z</time>
      </trkpt>
      <trkpt lat="46.53377" lon="5.61319">
        <ele>575.4</ele>
        <time>2021-09-19T13:52:26.821Z</time>
      </trkpt>
      <trkpt lat="46.53355" lon="5.61301">
        <ele>564</ele>
        <time>2021-09-19T13:52:28.718Z</time>
      </trkpt>
      <trkpt lat="46.53328" lon="5.61287">
        <ele>568</ele>
        <time>2021-09-19T13:52:43.284Z</time>
      </trkpt>
      <trkpt lat="46.53319" lon="5.6128">
        <ele>577.6</ele>
        <time>2021-09-19T13:52:48.471Z</time>
      </trkpt>
      <trkpt lat="46.53306" lon="5.61277">
        <ele>569</ele>
        <time>2021-09-19T13:52:49.460Z</time>
      </trkpt>
      <trkpt lat="46.53293" lon="5.61277">
        <ele>581.2</ele>
        <time>2021-09-19T13:52:56.066Z</time>
      </trkpt>
      <trkpt lat="46.53244" lon="5.61281">
        <ele>573</ele>
        <time>2021-09-19T13:52:59.753Z</time>
      </trkpt>
      <trkpt lat="46.53219" lon="5.61274">
        <ele>574</ele>
        <time>2021-09-19T13:53:04.992Z</time>
      </trkpt>
      <trkpt lat="46.53197" lon="5.6126">
        <ele>575</ele>
        <time>2021-09-19T13:53:10.106Z</time>
      </trkpt>
      <trkpt lat="46.53171" lon="5.61244">
        <ele>575</ele>
        <time>2021-09-19T13:53:13.826Z</time>
      </trkpt>
      <trkpt lat="46.5316" lon="5.6124">
        <ele>588.5</ele>
        <time>2021-09-19T13:53:19.588Z</time>
      </trkpt>
      <trkpt lat="46.53139" lon="5.6124">
        <ele>576</ele>
        <time>2021-09-19T13:53:21.166Z</time>
      </trkpt>
      <trkpt lat="46.53111" lon="5.61241">
        <ele>579</ele>
        <time>2021-09-19T13:53:31.475Z</time>
      </trkpt>
      <trkpt lat="46.53072" lon="5.61242">
        <ele>580</ele>
        <time>2021-09-19T13:53:38.191Z</time>
      </trkpt>
      <trkpt lat="46.53065" lon="5.61271">
        <ele>586</ele>
        <time>2021-09-19T13:53:48.934Z</time>
      </trkpt>
      <trkpt lat="46.53054" lon="5.61291">
        <ele>599.2</ele>
        <time>2021-09-19T13:53:57.886Z</time>
      </trkpt>
      <trkpt lat="46.53039" lon="5.61299">
        <ele>590</ele>
        <time>2021-09-19T13:53:59.086Z</time>
      </trkpt>
      <trkpt lat="46.53022" lon="5.61309">
        <ele>600.4</ele>
        <time>2021-09-19T13:54:08.405Z</time>
      </trkpt>
      <trkpt lat="46.53006" lon="5.6132">
        <ele>597</ele>
        <time>2021-09-19T13:54:09.735Z</time>
      </trkpt>
      <trkpt lat="46.52987" lon="5.61331">
        <ele>597</ele>
        <time>2021-09-19T13:54:12.429Z</time>
      </trkpt>
      <trkpt lat="46.52969" lon="5.61338">
        <ele>597</ele>
        <time>2021-09-19T13:54:14.884Z</time>
      </trkpt>
      <trkpt lat="46.52956" lon="5.61351">
        <ele>603.7</ele>
        <time>2021-09-19T13:54:22.902Z</time>
      </trkpt>
      <trkpt lat="46.5295" lon="5.61361">
        <ele>601</ele>
        <time>2021-09-19T13:54:23.588Z</time>
      </trkpt>
      <trkpt lat="46.52949" lon="5.61404">
        <ele>604</ele>
        <time>2021-09-19T13:54:33.864Z</time>
      </trkpt>
      <trkpt lat="46.52945" lon="5.61446">
        <ele>609</ele>
        <time>2021-09-19T13:54:48.686Z</time>
      </trkpt>
      <trkpt lat="46.52936" lon="5.61458">
        <ele>616.9</ele>
        <time>2021-09-19T13:54:54.892Z</time>
      </trkpt>
      <trkpt lat="46.52929" lon="5.61481">
        <ele>608</ele>
        <time>2021-09-19T13:54:56.192Z</time>
      </trkpt>
      <trkpt lat="46.52916" lon="5.61516">
        <ele>608</ele>
        <time>2021-09-19T13:54:59.797Z</time>
      </trkpt>
      <trkpt lat="46.52906" lon="5.61538">
        <ele>618.8</ele>
        <time>2021-09-19T13:55:09.015Z</time>
      </trkpt>
      <trkpt lat="46.52873" lon="5.61535">
        <ele>609</ele>
        <time>2021-09-19T13:55:11.500Z</time>
      </trkpt>
      <trkpt lat="46.52846" lon="5.61523">
        <ele>609</ele>
        <time>2021-09-19T13:55:15.219Z</time>
      </trkpt>
      <trkpt lat="46.52827" lon="5.6152">
        <ele>609</ele>
        <time>2021-09-19T13:55:17.737Z</time>
      </trkpt>
      <trkpt lat="46.52817" lon="5.61504">
        <ele>612</ele>
        <time>2021-09-19T13:55:25.294Z</time>
      </trkpt>
      <trkpt lat="46.52806" lon="5.61484">
        <ele>612</ele>
        <time>2021-09-19T13:55:27.615Z</time>
      </trkpt>
      <trkpt lat="46.52782" lon="5.61457">
        <ele>612</ele>
        <time>2021-09-19T13:55:31.613Z</time>
      </trkpt>
      <trkpt lat="46.5278" lon="5.61457">
        <ele>608.7</ele>
        <time>2021-09-19T13:55:31.763Z</time>
      </trkpt>
      <trkpt lat="46.52762" lon="5.61439">
        <ele>612</ele>
        <time>2021-09-19T13:55:42.865Z</time>
      </trkpt>
      <trkpt lat="46.52743" lon="5.61431">
        <ele>613</ele>
        <time>2021-09-19T13:55:47.438Z</time>
      </trkpt>
      <trkpt lat="46.52721" lon="5.61424">
        <ele>613</ele>
        <time>2021-09-19T13:55:50.405Z</time>
      </trkpt>
      <trkpt lat="46.52715" lon="5.61425">
        <ele>604.1</ele>
        <time>2021-09-19T13:55:50.859Z</time>
      </trkpt>
      <trkpt lat="46.52712" lon="5.61424">
        <ele>603.8</ele>
        <time>2021-09-19T13:55:51.090Z</time>
      </trkpt>
      <trkpt lat="46.52689" lon="5.61419">
        <ele>606</ele>
        <time>2021-09-19T13:55:58.659Z</time>
      </trkpt>
      <trkpt lat="46.52651" lon="5.61408">
        <ele>595</ele>
        <time>2021-09-19T13:56:01.570Z</time>
      </trkpt>
      <trkpt lat="46.52629" lon="5.61408">
        <ele>588</ele>
        <time>2021-09-19T13:56:03.224Z</time>
      </trkpt>
      <trkpt lat="46.52602" lon="5.61402">
        <ele>585</ele>
        <time>2021-09-19T13:56:05.276Z</time>
      </trkpt>
      <trkpt lat="46.52578" lon="5.61396">
        <ele>577</ele>
        <time>2021-09-19T13:56:07.106Z</time>
      </trkpt>
      <trkpt lat="46.52562" lon="5.61388">
        <ele>569.7</ele>
        <time>2021-09-19T13:56:08.377Z</time>
      </trkpt>
      <trkpt lat="46.52549" lon="5.61377">
        <ele>566</ele>
        <time>2021-09-19T13:56:09.507Z</time>
      </trkpt>
      <trkpt lat="46.52529" lon="5.61348">
        <ele>557</ele>
        <time>2021-09-19T13:56:11.630Z</time>
      </trkpt>
      <trkpt lat="46.52499" lon="5.61303">
        <ele>546</ele>
        <time>2021-09-19T13:56:14.869Z</time>
      </trkpt>
      <trkpt lat="46.52483" lon="5.61288">
        <ele>539</ele>
        <time>2021-09-19T13:56:16.300Z</time>
      </trkpt>
      <trkpt lat="46.52469" lon="5.6128">
        <ele>539.4</ele>
        <time>2021-09-19T13:56:18.920Z</time>
      </trkpt>
      <trkpt lat="46.5246" lon="5.61276">
        <ele>537</ele>
        <time>2021-09-19T13:56:19.627Z</time>
      </trkpt>
      <trkpt lat="46.52456" lon="5.61302">
        <ele>536</ele>
        <time>2021-09-19T13:56:21.016Z</time>
      </trkpt>
      <trkpt lat="46.52476" lon="5.61353">
        <ele>530</ele>
        <time>2021-09-19T13:56:24.051Z</time>
      </trkpt>
      <trkpt lat="46.5247" lon="5.61388">
        <ele>528</ele>
        <time>2021-09-19T13:56:25.916Z</time>
      </trkpt>
      <trkpt lat="46.52449" lon="5.61353">
        <ele>529</ele>
        <time>2021-09-19T13:56:31.817Z</time>
      </trkpt>
      <trkpt lat="46.52436" lon="5.61354">
        <ele>542.5</ele>
        <time>2021-09-19T13:56:38.432Z</time>
      </trkpt>
      <trkpt lat="46.52428" lon="5.61348">
        <ele>531</ele>
        <time>2021-09-19T13:56:39.108Z</time>
      </trkpt>
      <trkpt lat="46.5242" lon="5.6134">
        <ele>539.2</ele>
        <time>2021-09-19T13:56:44.042Z</time>
      </trkpt>
      <trkpt lat="46.52408" lon="5.61338">
        <ele>533</ele>
        <time>2021-09-19T13:56:44.950Z</time>
      </trkpt>
      <trkpt lat="46.52398" lon="5.61338">
        <ele>537.8</ele>
        <time>2021-09-19T13:56:50.031Z</time>
      </trkpt>
      <trkpt lat="46.52387" lon="5.61338">
        <ele>537</ele>
        <time>2021-09-19T13:56:50.858Z</time>
      </trkpt>
      <trkpt lat="46.52371" lon="5.61343">
        <ele>537</ele>
        <time>2021-09-19T13:56:53.014Z</time>
      </trkpt>
      <trkpt lat="46.52359" lon="5.61353">
        <ele>546</ele>
        <time>2021-09-19T13:57:00.043Z</time>
      </trkpt>
      <trkpt lat="46.52353" lon="5.61365">
        <ele>535.7</ele>
        <time>2021-09-19T13:57:00.810Z</time>
      </trkpt>
      <trkpt lat="46.52351" lon="5.61373">
        <ele>535.4</ele>
        <time>2021-09-19T13:57:01.266Z</time>
      </trkpt>
      <trkpt lat="46.52352" lon="5.61371">
        <ele>535.5</ele>
        <time>2021-09-19T13:57:01.682Z</time>
      </trkpt>
      <trkpt lat="46.52353" lon="5.61371">
        <ele>543</ele>
        <time>2021-09-19T13:57:02.190Z</time>
      </trkpt>
      <trkpt lat="46.52353" lon="5.61368">
        <ele>535.7</ele>
        <time>2021-09-19T13:57:02.345Z</time>
      </trkpt>
      <trkpt lat="46.52343" lon="5.61344">
        <ele>541</ele>
        <time>2021-09-19T13:57:12.155Z</time>
      </trkpt>
      <trkpt lat="46.52329" lon="5.61322">
        <ele>538</ele>
        <time>2021-09-19T13:57:13.704Z</time>
      </trkpt>
      <trkpt lat="46.52303" lon="5.61306">
        <ele>533</ele>
        <time>2021-09-19T13:57:15.826Z</time>
      </trkpt>
      <trkpt lat="46.52287" lon="5.61289">
        <ele>529</ele>
        <time>2021-09-19T13:57:17.315Z</time>
      </trkpt>
      <trkpt lat="46.5228" lon="5.61281">
        <ele>524.2</ele>
        <time>2021-09-19T13:57:17.984Z</time>
      </trkpt>
      <trkpt lat="46.52275" lon="5.61302">
        <ele>526</ele>
        <time>2021-09-19T13:57:24.316Z</time>
      </trkpt>
      <trkpt lat="46.52272" lon="5.61311">
        <ele>523.1</ele>
        <time>2021-09-19T13:57:24.833Z</time>
      </trkpt>
      <trkpt lat="46.5226" lon="5.6133">
        <ele>520</ele>
        <time>2021-09-19T13:57:26.166Z</time>
      </trkpt>
      <trkpt lat="46.52259" lon="5.61336">
        <ele>519.7</ele>
        <time>2021-09-19T13:57:26.485Z</time>
      </trkpt>
      <trkpt lat="46.52259" lon="5.61345">
        <ele>518.7</ele>
        <time>2021-09-19T13:57:26.950Z</time>
      </trkpt>
      <trkpt lat="46.52263" lon="5.61352">
        <ele>518.9</ele>
        <time>2021-09-19T13:57:28.116Z</time>
      </trkpt>
      <trkpt lat="46.52262" lon="5.61359">
        <ele>513</ele>
        <time>2021-09-19T13:57:28.486Z</time>
      </trkpt>
      <trkpt lat="46.52253" lon="5.61371">
        <ele>514.6</ele>
        <time>2021-09-19T13:57:34.481Z</time>
      </trkpt>
      <trkpt lat="46.52244" lon="5.61365">
        <ele>509</ele>
        <time>2021-09-19T13:57:35.225Z</time>
      </trkpt>
      <trkpt lat="46.52246" lon="5.6139">
        <ele>511.5</ele>
        <time>2021-09-19T13:57:44.025Z</time>
      </trkpt>
      <trkpt lat="46.52252" lon="5.61411">
        <ele>507</ele>
        <time>2021-09-19T13:57:45.201Z</time>
      </trkpt>
      <trkpt lat="46.52272" lon="5.61457">
        <ele>505</ele>
        <time>2021-09-19T13:57:48.065Z</time>
      </trkpt>
      <trkpt lat="46.52283" lon="5.61481">
        <ele>504</ele>
        <time>2021-09-19T13:57:49.623Z</time>
      </trkpt>
      <trkpt lat="46.52306" lon="5.61519">
        <ele>503</ele>
        <time>2021-09-19T13:57:52.988Z</time>
      </trkpt>
      <trkpt lat="46.52333" lon="5.61556">
        <ele>501</ele>
        <time>2021-09-19T13:57:55.816Z</time>
      </trkpt>
      <trkpt lat="46.52341" lon="5.61573">
        <ele>505.8</ele>
        <time>2021-09-19T13:58:03.017Z</time>
      </trkpt>
      <trkpt lat="46.5235" lon="5.61617">
        <ele>500</ele>
        <time>2021-09-19T13:58:05.390Z</time>
      </trkpt>
      <trkpt lat="46.52374" lon="5.61611">
        <ele>500</ele>
        <time>2021-09-19T13:58:08.598Z</time>
      </trkpt>
      <trkpt lat="46.52397" lon="5.61602">
        <ele>501</ele>
        <time>2021-09-19T13:58:13.697Z</time>
      </trkpt>
      <trkpt lat="46.52435" lon="5.61609">
        <ele>502</ele>
        <time>2021-09-19T13:58:20.329Z</time>
      </trkpt>
      <trkpt lat="46.52458" lon="5.61608">
        <ele>502</ele>
        <time>2021-09-19T13:58:23.360Z</time>
      </trkpt>
      <trkpt lat="46.52485" lon="5.61612">
        <ele>502</ele>
        <time>2021-09-19T13:58:26.936Z</time>
      </trkpt>
      <trkpt lat="46.5251" lon="5.61613">
        <ele>503</ele>
        <time>2021-09-19T13:58:32.135Z</time>
      </trkpt>
      <trkpt lat="46.52532" lon="5.61632">
        <ele>503</ele>
        <time>2021-09-19T13:58:35.506Z</time>
      </trkpt>
      <trkpt lat="46.52545" lon="5.61668">
        <ele>503</ele>
        <time>2021-09-19T13:58:39.191Z</time>
      </trkpt>
      <trkpt lat="46.52549" lon="5.61728">
        <ele>504</ele>
        <time>2021-09-19T13:58:46.204Z</time>
      </trkpt>
      <trkpt lat="46.52551" lon="5.61786">
        <ele>505</ele>
        <time>2021-09-19T13:58:53.033Z</time>
      </trkpt>
      <trkpt lat="46.52542" lon="5.6182">
        <ele>505</ele>
        <time>2021-09-19T13:58:56.335Z</time>
      </trkpt>
      <trkpt lat="46.52522" lon="5.61876">
        <ele>502</ele>
        <time>2021-09-19T13:58:59.597Z</time>
      </trkpt>
      <trkpt lat="46.52504" lon="5.61915">
        <ele>500</ele>
        <time>2021-09-19T13:59:01.904Z</time>
      </trkpt>
      <trkpt lat="46.52489" lon="5.61954">
        <ele>498</ele>
        <time>2021-09-19T13:59:04.046Z</time>
      </trkpt>
      <trkpt lat="46.52473" lon="5.61963">
        <ele>496.2</ele>
        <time>2021-09-19T13:59:05.336Z</time>
      </trkpt>
      <trkpt lat="46.52458" lon="5.61951">
        <ele>495</ele>
        <time>2021-09-19T13:59:06.622Z</time>
      </trkpt>
      <trkpt lat="46.52451" lon="5.61931">
        <ele>493.6</ele>
        <time>2021-09-19T13:59:07.782Z</time>
      </trkpt>
      <trkpt lat="46.52455" lon="5.61892">
        <ele>492</ele>
        <time>2021-09-19T13:59:09.765Z</time>
      </trkpt>
      <trkpt lat="46.52457" lon="5.61854">
        <ele>491</ele>
        <time>2021-09-19T13:59:12.068Z</time>
      </trkpt>
      <trkpt lat="46.52462" lon="5.61819">
        <ele>490</ele>
        <time>2021-09-19T13:59:14.177Z</time>
      </trkpt>
      <trkpt lat="46.52467" lon="5.61781">
        <ele>490</ele>
        <time>2021-09-19T13:59:17.684Z</time>
      </trkpt>
      <trkpt lat="46.52456" lon="5.618">
        <ele>493.2</ele>
        <time>2021-09-19T13:59:26.365Z</time>
      </trkpt>
      <trkpt lat="46.52414" lon="5.61904">
        <ele>485</ele>
        <time>2021-09-19T13:59:32.600Z</time>
      </trkpt>
      <trkpt lat="46.52393" lon="5.61953">
        <ele>484</ele>
        <time>2021-09-19T13:59:36.588Z</time>
      </trkpt>
      <trkpt lat="46.52391" lon="5.61996">
        <ele>484</ele>
        <time>2021-09-19T13:59:40.494Z</time>
      </trkpt>
      <trkpt lat="46.5239" lon="5.62031">
        <ele>483</ele>
        <time>2021-09-19T13:59:42.545Z</time>
      </trkpt>
      <trkpt lat="46.52388" lon="5.62071">
        <ele>483</ele>
        <time>2021-09-19T13:59:46.180Z</time>
      </trkpt>
      <trkpt lat="46.52386" lon="5.62111">
        <ele>483</ele>
        <time>2021-09-19T13:59:49.815Z</time>
      </trkpt>
      <trkpt lat="46.52382" lon="5.62168">
        <ele>482</ele>
        <time>2021-09-19T13:59:53.765Z</time>
      </trkpt>
      <trkpt lat="46.5238" lon="5.62193">
        <ele>486.2</ele>
        <time>2021-09-19T14:00:02.565Z</time>
      </trkpt>
      <trkpt lat="46.52365" lon="5.6219">
        <ele>482</ele>
        <time>2021-09-19T14:00:03.703Z</time>
      </trkpt>
      <trkpt lat="46.52354" lon="5.62197">
        <ele>484.1</ele>
        <time>2021-09-19T14:00:09.804Z</time>
      </trkpt>
      <trkpt lat="46.5234" lon="5.62194">
        <ele>482</ele>
        <time>2021-09-19T14:00:10.868Z</time>
      </trkpt>
      <trkpt lat="46.52329" lon="5.62176">
        <ele>481.4</ele>
        <time>2021-09-19T14:00:12.350Z</time>
      </trkpt>
      <trkpt lat="46.52332" lon="5.62162">
        <ele>479</ele>
        <time>2021-09-19T14:00:13.108Z</time>
      </trkpt>
      <trkpt lat="46.5235" lon="5.62145">
        <ele>478</ele>
        <time>2021-09-19T14:00:14.851Z</time>
      </trkpt>
      <trkpt lat="46.52361" lon="5.62136">
        <ele>484</ele>
        <time>2021-09-19T14:00:21.265Z</time>
      </trkpt>
      <trkpt lat="46.52374" lon="5.62117">
        <ele>477</ele>
        <time>2021-09-19T14:00:22.651Z</time>
      </trkpt>
      <trkpt lat="46.52366" lon="5.62097">
        <ele>484.8</ele>
        <time>2021-09-19T14:00:30.739Z</time>
      </trkpt>
      <trkpt lat="46.5236" lon="5.62081">
        <ele>477</ele>
        <time>2021-09-19T14:00:31.681Z</time>
      </trkpt>
      <trkpt lat="46.52356" lon="5.62064">
        <ele>482.8</ele>
        <time>2021-09-19T14:00:37.962Z</time>
      </trkpt>
      <trkpt lat="46.52356" lon="5.62033">
        <ele>477</ele>
        <time>2021-09-19T14:00:39.565Z</time>
      </trkpt>
      <trkpt lat="46.5235" lon="5.62022">
        <ele>481.4</ele>
        <time>2021-09-19T14:00:44.473Z</time>
      </trkpt>
      <trkpt lat="46.52328" lon="5.61968">
        <ele>477</ele>
        <time>2021-09-19T14:00:47.717Z</time>
      </trkpt>
      <trkpt lat="46.52321" lon="5.61975">
        <ele>477</ele>
        <time>2021-09-19T14:00:48.837Z</time>
      </trkpt>
      <trkpt lat="46.52321" lon="5.61975">
        <ele>477</ele>
        <time>2000-01-01T00:31:09.000Z</time>
      </trkpt>
      <trkpt lat="46.52321" lon="5.61975">
        <ele>477</ele>
        <time>2000-01-01T00:31:09.000Z</time>
      </trkpt>
      <trkpt lat="46.52344" lon="5.62019">
        <ele>475</ele>
        <time>2000-01-01T00:31:19.000Z</time>
      </trkpt>
      <trkpt lat="46.52318" lon="5.62024">
        <ele>474</ele>
        <time>2000-01-01T00:31:29.000Z</time>
      </trkpt>
      <trkpt lat="46.52305" lon="5.62034">
        <ele>476.6</ele>
        <time>2000-01-01T00:31:39.000Z</time>
      </trkpt>
      <trkpt lat="46.52285" lon="5.62083">
        <ele>472</ele>
        <time>2000-01-01T00:31:49.000Z</time>
      </trkpt>
      <trkpt lat="46.52258" lon="5.62097">
        <ele>472</ele>
        <time>2000-01-01T00:31:59.000Z</time>
      </trkpt>
      <trkpt lat="46.5223" lon="5.62122">
        <ele>472</ele>
        <time>2000-01-01T00:32:09.000Z</time>
      </trkpt>
      <trkpt lat="46.52212" lon="5.6215">
        <ele>472</ele>
        <time>2000-01-01T00:32:19.000Z</time>
      </trkpt>
      <trkpt lat="46.52194" lon="5.62173">
        <ele>473</ele>
        <time>2000-01-01T00:32:29.000Z</time>
      </trkpt>
      <trkpt lat="46.52183" lon="5.62193">
        <ele>478.1</ele>
        <time>2000-01-01T00:32:39.000Z</time>
      </trkpt>
      <trkpt lat="46.52173" lon="5.62209">
        <ele>475</ele>
        <time>2000-01-01T00:32:49.000Z</time>
      </trkpt>
      <trkpt lat="46.52159" lon="5.62224">
        <ele>479.5</ele>
        <time>2000-01-01T00:32:59.000Z</time>
      </trkpt>
      <trkpt lat="46.52147" lon="5.62244">
        <ele>476</ele>
        <time>2000-01-01T00:33:09.000Z</time>
      </trkpt>
      <trkpt lat="46.52126" lon="5.62258">
        <ele>476</ele>
        <time>2000-01-01T00:33:19.000Z</time>
      </trkpt>
      <trkpt lat="46.52105" lon="5.62256">
        <ele>477</ele>
        <time>2000-01-01T00:33:29.000Z</time>
      </trkpt>
      <trkpt lat="46.52069" lon="5.62241">
        <ele>479</ele>
        <time>2000-01-01T00:33:39.000Z</time>
      </trkpt>
      <trkpt lat="46.52039" lon="5.62221">
        <ele>479</ele>
        <time>2000-01-01T00:33:49.000Z</time>
      </trkpt>
      <trkpt lat="46.52019" lon="5.62223">
        <ele>477</ele>
        <time>2000-01-01T00:33:59.000Z</time>
      </trkpt>
      <trkpt lat="46.52002" lon="5.6225">
        <ele>475</ele>
        <time>2000-01-01T00:34:09.000Z</time>
      </trkpt>
      <trkpt lat="46.51982" lon="5.62282">
        <ele>475</ele>
        <time>2000-01-01T00:34:19.000Z</time>
      </trkpt>
      <trkpt lat="46.51961" lon="5.62309">
        <ele>474</ele>
        <time>2000-01-01T00:34:29.000Z</time>
      </trkpt>
      <trkpt lat="46.51937" lon="5.62334">
        <ele>470</ele>
        <time>2000-01-01T00:34:39.000Z</time>
      </trkpt>
      <trkpt lat="46.51909" lon="5.62362">
        <ele>464</ele>
        <time>2000-01-01T00:34:49.000Z</time>
      </trkpt>
      <trkpt lat="46.51892" lon="5.6239">
        <ele>460</ele>
        <time>2000-01-01T00:34:59.000Z</time>
      </trkpt>
      <trkpt lat="46.51868" lon="5.62431">
        <ele>457</ele>
        <time>2000-01-01T00:35:09.000Z</time>
      </trkpt>
      <trkpt lat="46.51847" lon="5.62443">
        <ele>457</ele>
        <time>2000-01-01T00:35:19.000Z</time>
      </trkpt>
      <trkpt lat="46.51834" lon="5.62447">
        <ele>464.1</ele>
        <time>2000-01-01T00:35:29.000Z</time>
      </trkpt>
      <trkpt lat="46.51826" lon="5.62444">
        <ele>457</ele>
        <time>2000-01-01T00:35:39.000Z</time>
      </trkpt>
      <trkpt lat="46.518" lon="5.62444">
        <ele>460</ele>
        <time>2000-01-01T00:35:49.000Z</time>
      </trkpt>
      <trkpt lat="46.5178" lon="5.62445">
        <ele>463</ele>
        <time>2000-01-01T00:35:59.000Z</time>
      </trkpt>
      <trkpt lat="46.51756" lon="5.62449">
        <ele>464</ele>
        <time>2000-01-01T00:36:09.000Z</time>
      </trkpt>
      <trkpt lat="46.51732" lon="5.62457">
        <ele>464</ele>
        <time>2000-01-01T00:36:19.000Z</time>
      </trkpt>
      <trkpt lat="46.51706" lon="5.62466">
        <ele>464</ele>
        <time>2000-01-01T00:36:29.000Z</time>
      </trkpt>
      <trkpt lat="46.51675" lon="5.62464">
        <ele>464</ele>
        <time>2000-01-01T00:36:39.000Z</time>
      </trkpt>
      <trkpt lat="46.51649" lon="5.62464">
        <ele>466</ele>
        <time>2000-01-01T00:36:49.000Z</time>
      </trkpt>
      <trkpt lat="46.51627" lon="5.62467">
        <ele>468</ele>
        <time>2000-01-01T00:36:59.000Z</time>
      </trkpt>
      <trkpt lat="46.51605" lon="5.62476">
        <ele>469</ele>
        <time>2000-01-01T00:37:09.000Z</time>
      </trkpt>
      <trkpt lat="46.51584" lon="5.62496">
        <ele>469</ele>
        <time>2000-01-01T00:37:19.000Z</time>
      </trkpt>
      <trkpt lat="46.51562" lon="5.62521">
        <ele>469</ele>
        <time>2000-01-01T00:37:29.000Z</time>
      </trkpt>
      <trkpt lat="46.51529" lon="5.62551">
        <ele>467</ele>
        <time>2000-01-01T00:37:39.000Z</time>
      </trkpt>
      <trkpt lat="46.5153" lon="5.62547">
        <ele>465.6</ele>
        <time>2000-01-01T00:37:49.000Z</time>
      </trkpt>
      <trkpt lat="46.51534" lon="5.6255">
        <ele>465.9</ele>
        <time>2000-01-01T00:37:59.000Z</time>
      </trkpt>
      <trkpt lat="46.51519" lon="5.62553">
        <ele>467</ele>
        <time>2000-01-01T00:38:09.000Z</time>
      </trkpt>
      <trkpt lat="46.51501" lon="5.62559">
        <ele>466</ele>
        <time>2000-01-01T00:38:19.000Z</time>
      </trkpt>
      <trkpt lat="46.51482" lon="5.6257">
        <ele>466</ele>
        <time>2000-01-01T00:38:29.000Z</time>
      </trkpt>
      <trkpt lat="46.51466" lon="5.62585">
        <ele>465</ele>
        <time>2000-01-01T00:38:39.000Z</time>
      </trkpt>
      <trkpt lat="46.51441" lon="5.62618">
        <ele>464</ele>
        <time>2000-01-01T00:38:49.000Z</time>
      </trkpt>
      <trkpt lat="46.51411" lon="5.62643">
        <ele>461</ele>
        <time>2000-01-01T00:38:59.000Z</time>
      </trkpt>
      <trkpt lat="46.51393" lon="5.62652">
        <ele>459.4</ele>
        <time>2000-01-01T00:39:09.000Z</time>
      </trkpt>
      <trkpt lat="46.51379" lon="5.62657">
        <ele>458</ele>
        <time>2000-01-01T00:39:19.000Z</time>
      </trkpt>
      <trkpt lat="46.51365" lon="5.62657">
        <ele>457.9</ele>
        <time>2000-01-01T00:39:29.000Z</time>
      </trkpt>
      <trkpt lat="46.51357" lon="5.62646">
        <ele>458</ele>
        <time>2000-01-01T00:39:39.000Z</time>
      </trkpt>
      <trkpt lat="46.5135" lon="5.62629">
        <ele>458.5</ele>
        <time>2000-01-01T00:39:49.000Z</time>
      </trkpt>
      <trkpt lat="46.51339" lon="5.62612">
        <ele>458</ele>
        <time>2000-01-01T00:39:59.000Z</time>
      </trkpt>
      <trkpt lat="46.51323" lon="5.62589">
        <ele>459</ele>
        <time>2000-01-01T00:40:09.000Z</time>
      </trkpt>
      <trkpt lat="46.51313" lon="5.62578">
        <ele>459</ele>
        <time>2000-01-01T00:40:19.000Z</time>
      </trkpt>
      <trkpt lat="46.51309" lon="5.62564">
        <ele>459</ele>
        <time>2000-01-01T00:40:29.000Z</time>
      </trkpt>
      <trkpt lat="46.51302" lon="5.62549">
        <ele>459.8</ele>
        <time>2000-01-01T00:40:39.000Z</time>
      </trkpt>
      <trkpt lat="46.51294" lon="5.62545">
        <ele>460</ele>
        <time>2000-01-01T00:40:49.000Z</time>
      </trkpt>
      <trkpt lat="46.5128" lon="5.62529">
        <ele>460</ele>
        <time>2000-01-01T00:40:59.000Z</time>
      </trkpt>
      <trkpt lat="46.5127" lon="5.6252">
        <ele>461</ele>
        <time>2000-01-01T00:41:09.000Z</time>
      </trkpt>
      <trkpt lat="46.51254" lon="5.62514">
        <ele>460.1</ele>
        <time>2000-01-01T00:41:19.000Z</time>
      </trkpt>
      <trkpt lat="46.51242" lon="5.62503">
        <ele>462</ele>
        <time>2000-01-01T00:41:29.000Z</time>
      </trkpt>
      <trkpt lat="46.51234" lon="5.625">
        <ele>460.8</ele>
        <time>2000-01-01T00:41:39.000Z</time>
      </trkpt>
      <trkpt lat="46.51228" lon="5.62489">
        <ele>460.7</ele>
        <time>2000-01-01T00:41:49.000Z</time>
      </trkpt>
      <trkpt lat="46.51217" lon="5.62474">
        <ele>462</ele>
        <time>2000-01-01T00:41:59.000Z</time>
      </trkpt>
      <trkpt lat="46.51211" lon="5.62465">
        <ele>460.9</ele>
        <time>2000-01-01T00:42:09.000Z</time>
      </trkpt>
      <trkpt lat="46.512" lon="5.62452">
        <ele>462</ele>
        <time>2000-01-01T00:42:19.000Z</time>
      </trkpt>
      <trkpt lat="46.51183" lon="5.62448">
        <ele>461.6</ele>
        <time>2000-01-01T00:42:29.000Z</time>
      </trkpt>
      <trkpt lat="46.51168" lon="5.62448">
        <ele>464</ele>
        <time>2000-01-01T00:42:39.000Z</time>
      </trkpt>
      <trkpt lat="46.51152" lon="5.62446">
        <ele>461.7</ele>
        <time>2000-01-01T00:42:49.000Z</time>
      </trkpt>
      <trkpt lat="46.51141" lon="5.62434">
        <ele>464</ele>
        <time>2000-01-01T00:42:59.000Z</time>
      </trkpt>
      <trkpt lat="46.51115" lon="5.62417">
        <ele>464</ele>
        <time>2000-01-01T00:43:09.000Z</time>
      </trkpt>
      <trkpt lat="46.51096" lon="5.62411">
        <ele>463</ele>
        <time>2000-01-01T00:43:19.000Z</time>
      </trkpt>
      <trkpt lat="46.51088" lon="5.62412">
        <ele>463.2</ele>
        <time>2000-01-01T00:43:29.000Z</time>
      </trkpt>
      <trkpt lat="46.51068" lon="5.62421">
        <ele>462</ele>
        <time>2000-01-01T00:43:39.000Z</time>
      </trkpt>
      <trkpt lat="46.51052" lon="5.62419">
        <ele>462.2</ele>
        <time>2000-01-01T00:43:49.000Z</time>
      </trkpt>
      <trkpt lat="46.51036" lon="5.62406">
        <ele>462</ele>
        <time>2000-01-01T00:43:59.000Z</time>
      </trkpt>
      <trkpt lat="46.51024" lon="5.62399">
        <ele>458.5</ele>
        <time>2000-01-01T00:44:09.000Z</time>
      </trkpt>
      <trkpt lat="46.51018" lon="5.62377">
        <ele>462</ele>
        <time>2000-01-01T00:44:19.000Z</time>
      </trkpt>
      <trkpt lat="46.50996" lon="5.62371">
        <ele>462</ele>
        <time>2000-01-01T00:44:29.000Z</time>
      </trkpt>
      <trkpt lat="46.50973" lon="5.62371">
        <ele>462</ele>
        <time>2000-01-01T00:44:39.000Z</time>
      </trkpt>
      <trkpt lat="46.50951" lon="5.62375">
        <ele>461</ele>
        <time>2000-01-01T00:44:49.000Z</time>
      </trkpt>
      <trkpt lat="46.50944" lon="5.62373">
        <ele>448.6</ele>
        <time>2000-01-01T00:44:59.000Z</time>
      </trkpt>
      <trkpt lat="46.50931" lon="5.62378">
        <ele>460</ele>
        <time>2000-01-01T00:45:09.000Z</time>
      </trkpt>
      <trkpt lat="46.50919" lon="5.62386">
        <ele>448.7</ele>
        <time>2000-01-01T00:45:19.000Z</time>
      </trkpt>
      <trkpt lat="46.50898" lon="5.62396">
        <ele>457</ele>
        <time>2000-01-01T00:45:29.000Z</time>
      </trkpt>
      <trkpt lat="46.50875" lon="5.62398">
        <ele>456</ele>
        <time>2000-01-01T00:45:39.000Z</time>
      </trkpt>
      <trkpt lat="46.50839" lon="5.62396">
        <ele>453</ele>
        <time>2000-01-01T00:45:49.000Z</time>
      </trkpt>
      <trkpt lat="46.5082" lon="5.62401">
        <ele>451</ele>
        <time>2000-01-01T00:45:59.000Z</time>
      </trkpt>
      <trkpt lat="46.50804" lon="5.62415">
        <ele>446.9</ele>
        <time>2000-01-01T00:46:09.000Z</time>
      </trkpt>
      <trkpt lat="46.50783" lon="5.6243">
        <ele>451</ele>
        <time>2000-01-01T00:46:19.000Z</time>
      </trkpt>
      <trkpt lat="46.50763" lon="5.62451">
        <ele>450</ele>
        <time>2000-01-01T00:46:29.000Z</time>
      </trkpt>
      <trkpt lat="46.50747" lon="5.62473">
        <ele>446</ele>
        <time>2000-01-01T00:46:39.000Z</time>
      </trkpt>
      <trkpt lat="46.50723" lon="5.62475">
        <ele>444</ele>
        <time>2000-01-01T00:46:49.000Z</time>
      </trkpt>
      <trkpt lat="46.50697" lon="5.62478">
        <ele>441</ele>
        <time>2000-01-01T00:46:59.000Z</time>
      </trkpt>
      <trkpt lat="46.50674" lon="5.62499">
        <ele>438</ele>
        <time>2000-01-01T00:47:09.000Z</time>
      </trkpt>
      <trkpt lat="46.50651" lon="5.62522">
        <ele>436</ele>
        <time>2000-01-01T00:47:19.000Z</time>
      </trkpt>
      <trkpt lat="46.50633" lon="5.62545">
        <ele>432</ele>
        <time>2000-01-01T00:47:29.000Z</time>
      </trkpt>
      <trkpt lat="46.50623" lon="5.62605">
        <ele>430</ele>
        <time>2000-01-01T00:47:39.000Z</time>
      </trkpt>
      <trkpt lat="46.50616" lon="5.62657">
        <ele>427</ele>
        <time>2000-01-01T00:47:49.000Z</time>
      </trkpt>
      <trkpt lat="46.50625" lon="5.62698">
        <ele>425</ele>
        <time>2000-01-01T00:47:59.000Z</time>
      </trkpt>
      <trkpt lat="46.50647" lon="5.62723">
        <ele>421</ele>
        <time>2000-01-01T00:48:09.000Z</time>
      </trkpt>
      <trkpt lat="46.50679" lon="5.62746">
        <ele>420</ele>
        <time>2000-01-01T00:48:19.000Z</time>
      </trkpt>
      <trkpt lat="46.50705" lon="5.6277">
        <ele>415</ele>
        <time>2000-01-01T00:48:29.000Z</time>
      </trkpt>
      <trkpt lat="46.50718" lon="5.62788">
        <ele>419.1</ele>
        <time>2000-01-01T00:48:39.000Z</time>
      </trkpt>
      <trkpt lat="46.50721" lon="5.62831">
        <ele>412</ele>
        <time>2000-01-01T00:48:49.000Z</time>
      </trkpt>
      <trkpt lat="46.50721" lon="5.62875">
        <ele>409</ele>
        <time>2000-01-01T00:48:59.000Z</time>
      </trkpt>
      <trkpt lat="46.5072" lon="5.62917">
        <ele>405</ele>
        <time>2000-01-01T00:49:09.000Z</time>
      </trkpt>
      <trkpt lat="46.50717" lon="5.62947">
        <ele>404</ele>
        <time>2000-01-01T00:49:19.000Z</time>
      </trkpt>
      <trkpt lat="46.50709" lon="5.62981">
        <ele>401</ele>
        <time>2000-01-01T00:49:29.000Z</time>
      </trkpt>
      <trkpt lat="46.50696" lon="5.63023">
        <ele>400</ele>
        <time>2000-01-01T00:49:39.000Z</time>
      </trkpt>
      <trkpt lat="46.50684" lon="5.63051">
        <ele>400</ele>
        <time>2000-01-01T00:49:49.000Z</time>
      </trkpt>
      <trkpt lat="46.5067" lon="5.63086">
        <ele>403</ele>
        <time>2000-01-01T00:49:59.000Z</time>
      </trkpt>
      <trkpt lat="46.50655" lon="5.63127">
        <ele>403</ele>
        <time>2000-01-01T00:50:09.000Z</time>
      </trkpt>
      <trkpt lat="46.50638" lon="5.63136">
        <ele>408.3</ele>
        <time>2000-01-01T00:50:19.000Z</time>
      </trkpt>
      <trkpt lat="46.50612" lon="5.63138">
        <ele>400</ele>
        <time>2000-01-01T00:50:29.000Z</time>
      </trkpt>
      <trkpt lat="46.50586" lon="5.63139">
        <ele>399</ele>
        <time>2000-01-01T00:50:39.000Z</time>
      </trkpt>
      <trkpt lat="46.50554" lon="5.63144">
        <ele>399</ele>
        <time>2000-01-01T00:50:49.000Z</time>
      </trkpt>
      <trkpt lat="46.50535" lon="5.63161">
        <ele>399</ele>
        <time>2000-01-01T00:50:59.000Z</time>
      </trkpt>
      <trkpt lat="46.50527" lon="5.63192">
        <ele>403</ele>
        <time>2000-01-01T00:51:09.000Z</time>
      </trkpt>
      <trkpt lat="46.50515" lon="5.63237">
        <ele>407</ele>
        <time>2000-01-01T00:51:19.000Z</time>
      </trkpt>
      <trkpt lat="46.50509" lon="5.63267">
        <ele>411</ele>
        <time>2000-01-01T00:51:29.000Z</time>
      </trkpt>
      <trkpt lat="46.50507" lon="5.63297">
        <ele>412</ele>
        <time>2000-01-01T00:51:39.000Z</time>
      </trkpt>
      <trkpt lat="46.50507" lon="5.63345">
        <ele>413</ele>
        <time>2000-01-01T00:51:49.000Z</time>
      </trkpt>
      <trkpt lat="46.50506" lon="5.63372">
        <ele>413</ele>
        <time>2000-01-01T00:51:59.000Z</time>
      </trkpt>
      <trkpt lat="46.50479" lon="5.6341">
        <ele>410</ele>
        <time>2000-01-01T00:52:09.000Z</time>
      </trkpt>
      <trkpt lat="46.50479" lon="5.63404">
        <ele>416.6</ele>
      </trkpt>
      <trkpt lat="46.50482" lon="5.63404">
        <ele>416.8</ele>
      </trkpt>
      <trkpt lat="46.50544" lon="5.63443">
        <ele>418.5</ele>
      </trkpt>
      <trkpt lat="46.50655" lon="5.63503">
        <ele>417.5</ele>
      </trkpt>
      <trkpt lat="46.50778" lon="5.63572">
        <ele>421.4</ele>
      </trkpt>
      <trkpt lat="46.5082" lon="5.63588">
        <ele>423.3</ele>
      </trkpt>
      <trkpt lat="46.50883" lon="5.63609">
        <ele>433.5</ele>
      </trkpt>
      <trkpt lat="46.50914" lon="5.63634">
        <ele>433.4</ele>
      </trkpt>
      <trkpt lat="46.50932" lon="5.63654">
        <ele>431.4</ele>
      </trkpt>
      <trkpt lat="46.50946" lon="5.63675">
        <ele>429.9</ele>
      </trkpt>
      <trkpt lat="46.50951" lon="5.6368">
        <ele>430.3</ele>
      </trkpt>
      <trkpt lat="46.50954" lon="5.63686">
        <ele>430.2</ele>
      </trkpt>
      <trkpt lat="46.50957" lon="5.63698">
        <ele>429.4</ele>
      </trkpt>
      <trkpt lat="46.50962" lon="5.63709">
        <ele>428.7</ele>
      </trkpt>
      <trkpt lat="46.50969" lon="5.63715">
        <ele>428.8</ele>
      </trkpt>
      <trkpt lat="46.50976" lon="5.63721">
        <ele>428.8</ele>
      </trkpt>
      <trkpt lat="46.50981" lon="5.63729">
        <ele>428.1</ele>
      </trkpt>
      <trkpt lat="46.50983" lon="5.63738">
        <ele>426.9</ele>
      </trkpt>
      <trkpt lat="46.50988" lon="5.63746">
        <ele>425.8</ele>
      </trkpt>
      <trkpt lat="46.50992" lon="5.63752">
        <ele>425.4</ele>
      </trkpt>
      <trkpt lat="46.50994" lon="5.63756">
        <ele>425.4</ele>
      </trkpt>
      <trkpt lat="46.50993" lon="5.63762">
        <ele>425.2</ele>
      </trkpt>
      <trkpt lat="46.50997" lon="5.63774">
        <ele>425</ele>
      </trkpt>
      <trkpt lat="46.51002" lon="5.63782">
        <ele>425</ele>
      </trkpt>
      <trkpt lat="46.51008" lon="5.63787">
        <ele>425.3</ele>
      </trkpt>
      <trkpt lat="46.51011" lon="5.6379">
        <ele>425.4</ele>
      </trkpt>
      <trkpt lat="46.5102" lon="5.6379">
        <ele>426.2</ele>
      </trkpt>
      <trkpt lat="46.51034" lon="5.6379">
        <ele>427.3</ele>
      </trkpt>
      <trkpt lat="46.51041" lon="5.6379">
        <ele>427.8</ele>
      </trkpt>
      <trkpt lat="46.51048" lon="5.63795">
        <ele>428</ele>
      </trkpt>
      <trkpt lat="46.51055" lon="5.63804">
        <ele>427.8</ele>
      </trkpt>
      <trkpt lat="46.51055" lon="5.63804">
        <ele>427.8</ele>
      </trkpt>
      <trkpt lat="46.5106" lon="5.63814">
        <ele>427.4</ele>
      </trkpt>
      <trkpt lat="46.51065" lon="5.63823">
        <ele>427</ele>
      </trkpt>
      <trkpt lat="46.5107" lon="5.63827">
        <ele>426.9</ele>
      </trkpt>
      <trkpt lat="46.51076" lon="5.63832">
        <ele>426.8</ele>
      </trkpt>
      <trkpt lat="46.51072" lon="5.63833">
        <ele>426.4</ele>
      </trkpt>
      <trkpt lat="46.51066" lon="5.63837">
        <ele>426.4</ele>
      </trkpt>
      <trkpt lat="46.5106" lon="5.63845">
        <ele>426.6</ele>
      </trkpt>
      <trkpt lat="46.51045" lon="5.63862">
        <ele>427.4</ele>
      </trkpt>
      <trkpt lat="46.5104" lon="5.63871">
        <ele>427.9</ele>
      </trkpt>
      <trkpt lat="46.51035" lon="5.6388">
        <ele>428.6</ele>
      </trkpt>
      <trkpt lat="46.51045" lon="5.63883">
        <ele>428.9</ele>
      </trkpt>
      <trkpt lat="46.51053" lon="5.63886">
        <ele>429.2</ele>
      </trkpt>
      <trkpt lat="46.51058" lon="5.63891">
        <ele>429.6</ele>
      </trkpt>
      <trkpt lat="46.51062" lon="5.63898">
        <ele>430.1</ele>
      </trkpt>
      <trkpt lat="46.51067" lon="5.63907">
        <ele>430.6</ele>
      </trkpt>
      <trkpt lat="46.51074" lon="5.63924">
        <ele>431.9</ele>
      </trkpt>
      <trkpt lat="46.51085" lon="5.63938">
        <ele>433.7</ele>
      </trkpt>
      <trkpt lat="46.51095" lon="5.63959">
        <ele>436.5</ele>
      </trkpt>
      <trkpt lat="46.511" lon="5.63975">
        <ele>438.2</ele>
      </trkpt>
      <trkpt lat="46.51108" lon="5.63984">
        <ele>439.3</ele>
      </trkpt>
      <trkpt lat="46.51114" lon="5.63995">
        <ele>440.2</ele>
      </trkpt>
      <trkpt lat="46.51122" lon="5.64002">
        <ele>440.7</ele>
      </trkpt>
      <trkpt lat="46.51129" lon="5.64014">
        <ele>441.2</ele>
      </trkpt>
      <trkpt lat="46.51135" lon="5.64033">
        <ele>442.2</ele>
      </trkpt>
      <trkpt lat="46.51144" lon="5.64073">
        <ele>443.9</ele>
      </trkpt>
      <trkpt lat="46.51162" lon="5.64145">
        <ele>448.5</ele>
      </trkpt>
      <trkpt lat="46.51169" lon="5.64164">
        <ele>449.6</ele>
      </trkpt>
      <trkpt lat="46.51171" lon="5.64176">
        <ele>449.4</ele>
      </trkpt>
      <trkpt lat="46.51172" lon="5.64188">
        <ele>449.2</ele>
      </trkpt>
      <trkpt lat="46.51169" lon="5.64187">
        <ele>449.5</ele>
      </trkpt>
      <trkpt lat="46.51172" lon="5.64188">
        <ele>449.2</ele>
      </trkpt>
      <trkpt lat="46.51172" lon="5.64197">
        <ele>449.1</ele>
      </trkpt>
      <trkpt lat="46.51171" lon="5.64206">
        <ele>449</ele>
      </trkpt>
      <trkpt lat="46.5117" lon="5.64215">
        <ele>449</ele>
      </trkpt>
    </trkseg>
  </trk>
</gpx>